Observation data for Dell City 1N on 02/12/2018      Previous  Date  Next       Current Mesonet Observations  Soil Data  Daily Summary Page  Observations in Plain Language
KDC1 120600Z 18005KT 02/M09 A3015 RMK A01 T00151085  RH  047%=      5-min Rain = 0
KDC1 120601Z 18006KT 01/M09 A3015 RMK A01 T00141086  RH  047%=      5-min Rain = 0
KDC1 120602Z 17005KT 01/M09 A3015 RMK A01 T00141086  RH  047%=      5-min Rain = 0
KDC1 120603Z 18005KT 01/M09 A3015 RMK A01 T00141086  RH  048%=      5-min Rain = 0
KDC1 120604Z 18005KT 01/M09 A3015 RMK A01 T00131086  RH  048%=      5-min Rain = 0
KDC1 120605Z 17005KT 01/M09 A3015 RMK A01 T00131086  RH  048%=      5-min Rain = 0
KDC1 120606Z 17004KT 01/M09 A3015 RMK A01 T00131086  RH  048%=      5-min Rain = 0
KDC1 120607Z 17004KT 01/M09 A3015 RMK A01 T00121086  RH  048%=      5-min Rain = 0
KDC1 120608Z 17004KT 01/M09 A3015 RMK A01 T00121086  RH  048%=      5-min Rain = 0
KDC1 120609Z 17004KT 01/M09 A3015 RMK A01 T00121086  RH  048%=      5-min Rain = 0
KDC1 120610Z 16005KT 01/M09 A3015 RMK A01 T00111086  RH  048%=      5-min Rain = 0
KDC1 120611Z 16005KT 01/M09 A3015 RMK A01 T00111087  RH  048%=      5-min Rain = 0
KDC1 120612Z 16005KT 01/M09 A3015 RMK A01 T00101086  RH  049%=      5-min Rain = 0
KDC1 120613Z 16005KT 01/M09 A3015 RMK A01 T00101086  RH  049%=      5-min Rain = 0
KDC1 120614Z 16005KT 01/M09 A3015 RMK A01 T00101086  RH  048%=      5-min Rain = 0
KDC1 120615Z 16005KT 01/M09 A3015 RMK A01 T00111086  RH  048%=      5-min Rain = 0
KDC1 120616Z 16005KT 01/M09 A3015 RMK A01 T00101086  RH  048%=      5-min Rain = 0
KDC1 120617Z 16006KT 01/M09 A3015 RMK A01 T00101086  RH  049%=      5-min Rain = 0
KDC1 120618Z 16005KT 01/M09 A3015 RMK A01 T00101086  RH  049%=      5-min Rain = 0
KDC1 120619Z 16004KT 01/M09 A3015 RMK A01 T00101086  RH  049%=      5-min Rain = 0
KDC1 120620Z 16004KT 01/M09 A3015 RMK A01 T00091086  RH  049%=      5-min Rain = 0
KDC1 120621Z 16004KT 01/M09 A3015 RMK A01 T00091086  RH  049%=      5-min Rain = 0
KDC1 120622Z 17005KT 01/M09 A3016 RMK A01 T00091086  RH  049%=      5-min Rain = 0
KDC1 120623Z 17004KT 01/M09 A3016 RMK A01 T00091086  RH  049%=      5-min Rain = 0
KDC1 120624Z 17003KT 01/M09 A3016 RMK A01 T00091086  RH  049%=      5-min Rain = 0
KDC1 120625Z 18003KT 01/M09 A3016 RMK A01 T00081086  RH  049%=      5-min Rain = 0
KDC1 120626Z 18003KT 01/M09 A3016 RMK A01 T00091086  RH  049%=      5-min Rain = 0
KDC1 120627Z 18003KT 01/M09 A3016 RMK A01 T00081086  RH  049%=      5-min Rain = 0
KDC1 120628Z 18003KT 01/M09 A3016 RMK A01 T00091086  RH  049%=      5-min Rain = 0
KDC1 120629Z 19003KT 01/M09 A3016 RMK A01 T00081086  RH  049%=      5-min Rain = 0
KDC1 120630Z 18003KT 01/M09 A3016 RMK A01 T00091086  RH  049%=      5-min Rain = 0
KDC1 120631Z 18003KT 01/M09 A3016 RMK A01 T00091086  RH  049%=      5-min Rain = 0
KDC1 120632Z 19002KT 01/M09 A3016 RMK A01 T00091086  RH  049%=      5-min Rain = 0
KDC1 120633Z 19003KT 01/M09 A3016 RMK A01 T00091086  RH  049%=      5-min Rain = 0
KDC1 120634Z 20002KT 01/M09 A3016 RMK A01 T00091086  RH  049%=      5-min Rain = 0
KDC1 120635Z 18002KT 01/M09 A3016 RMK A01 T00091085  RH  049%=      5-min Rain = 0
KDC1 120636Z 17002KT 01/M08 A3016 RMK A01 T00091082  RH  051%=      5-min Rain = 0
KDC1 120637Z 18002KT 01/M08 A3016 RMK A01 T00081082  RH  051%=      5-min Rain = 0
KDC1 120638Z 19002KT 01/M08 A3016 RMK A01 T00081084  RH  050%=      5-min Rain = 0
KDC1 120639Z 19002KT 01/M08 A3016 RMK A01 T00071083  RH  051%=      5-min Rain = 0
KDC1 120640Z 19002KT 01/M08 A3016 RMK A01 T00061082  RH  052%=      5-min Rain = 0
KDC1 120641Z 19003KT 01/M08 A3016 RMK A01 T00061083  RH  052%=      5-min Rain = 0
KDC1 120642Z 18002KT 01/M08 A3016 RMK A01 T00061084  RH  051%=      5-min Rain = 0
KDC1 120643Z 18002KT 01/M09 A3016 RMK A01 T00051085  RH  051%=      5-min Rain = 0
KDC1 120644Z 18002KT 01/M09 A3016 RMK A01 T00061086  RH  050%=      5-min Rain = 0
KDC1 120645Z 18003KT 01/M09 A3016 RMK A01 T00061087  RH  050%=      5-min Rain = 0
KDC1 120646Z 18003KT 01/M09 A3016 RMK A01 T00071087  RH  049%=      5-min Rain = 0
KDC1 120647Z 17003KT 01/M09 A3016 RMK A01 T00081087  RH  049%=      5-min Rain = 0
KDC1 120648Z 18003KT 01/M09 A3016 RMK A01 T00081088  RH  049%=      5-min Rain = 0
KDC1 120649Z 18003KT 01/M09 A3016 RMK A01 T00081088  RH  049%=      5-min Rain = 0
KDC1 120650Z 18004KT 01/M09 A3016 RMK A01 T00081088  RH  048%=      5-min Rain = 0
KDC1 120651Z 19004KT 01/M09 A3016 RMK A01 T00091088  RH  048%=      5-min Rain = 0
KDC1 120652Z 18003KT 01/M09 A3016 RMK A01 T00091088  RH  048%=      5-min Rain = 0
KDC1 120653Z 18003KT 01/M09 A3016 RMK A01 T00091088  RH  048%=      5-min Rain = 0
KDC1 120654Z 18003KT 01/M09 A3016 RMK A01 T00091088  RH  048%=      5-min Rain = 0
KDC1 120655Z 18004KT 01/M09 A3016 RMK A01 T00091089  RH  048%=      5-min Rain = 0
KDC1 120656Z 18004KT 01/M09 A3016 RMK A01 T00081089  RH  048%=      5-min Rain = 0
KDC1 120657Z 19003KT 01/M09 A3016 RMK A01 T00081089  RH  048%=      5-min Rain = 0
KDC1 120658Z 19003KT 01/M09 A3016 RMK A01 T00091088  RH  048%=      5-min Rain = 0
KDC1 120659Z 20003KT 01/M09 A3016 RMK A01 T00081089  RH  048%=      5-min Rain = 0
KDC1 120700Z 19003KT 01/M09 A3016 RMK A01 T00081089  RH  048%=      5-min Rain = 0
KDC1 120701Z 19003KT 01/M09 A3016 RMK A01 T00081089  RH  048%=      5-min Rain = 0
KDC1 120702Z 19003KT 01/M09 A3016 RMK A01 T00081089  RH  048%=      5-min Rain = 0
KDC1 120703Z 19003KT 01/M09 A3016 RMK A01 T00081090  RH  048%=      5-min Rain = 0
KDC1 120704Z 20002KT 01/M09 A3016 RMK A01 T00081090  RH  048%=      5-min Rain = 0
KDC1 120705Z 19003KT 01/M09 A3016 RMK A01 T00081090  RH  048%=      5-min Rain = 0
KDC1 120706Z 19003KT 01/M09 A3017 RMK A01 T00071090  RH  048%=      5-min Rain = 0
KDC1 120707Z 19003KT 01/M09 A3016 RMK A01 T00071090  RH  048%=      5-min Rain = 0
KDC1 120708Z 19003KT 01/M09 A3016 RMK A01 T00071090  RH  048%=      5-min Rain = 0
KDC1 120709Z 19004KT 01/M09 A3016 RMK A01 T00071090  RH  049%=      5-min Rain = 0
KDC1 120710Z 19003KT 01/M09 A3016 RMK A01 T00071089  RH  049%=      5-min Rain = 0
KDC1 120711Z 19003KT 01/M09 A3016 RMK A01 T00061090  RH  049%=      5-min Rain = 0
KDC1 120712Z 20003KT 01/M09 A3016 RMK A01 T00061090  RH  049%=      5-min Rain = 0
KDC1 120713Z 19003KT 01/M09 A3016 RMK A01 T00061090  RH  049%=      5-min Rain = 0
KDC1 120714Z 19003KT 01/M09 A3017 RMK A01 T00061091  RH  048%=      5-min Rain = 0
KDC1 120715Z 19003KT 01/M09 A3017 RMK A01 T00061091  RH  048%=      5-min Rain = 0
KDC1 120716Z 19003KT 01/M09 A3017 RMK A01 T00061091  RH  048%=      5-min Rain = 0
KDC1 120717Z 19003KT 01/M09 A3017 RMK A01 T00061091  RH  048%=      5-min Rain = 0
KDC1 120718Z 19004KT 01/M09 A3017 RMK A01 T00051091  RH  048%=      5-min Rain = 0
KDC1 120719Z 19004KT 01/M09 A3016 RMK A01 T00051091  RH  048%=      5-min Rain = 0
KDC1 120720Z 19003KT 01/M09 A3016 RMK A01 T00051091  RH  049%=      5-min Rain = 0
KDC1 120721Z 18004KT 01/M09 A3016 RMK A01 T00051091  RH  049%=      5-min Rain = 0
KDC1 120722Z 19004KT 01/M09 A3016 RMK A01 T00051091  RH  049%=      5-min Rain = 0
KDC1 120723Z 19004KT 01/M09 A3016 RMK A01 T00051090  RH  049%=      5-min Rain = 0
KDC1 120724Z 19004KT 01/M09 A3017 RMK A01 T00051090  RH  049%=      5-min Rain = 0
KDC1 120725Z 19004KT 01/M09 A3017 RMK A01 T00051091  RH  048%=      5-min Rain = 0
KDC1 120726Z 19004KT 01/M09 A3017 RMK A01 T00051092  RH  048%=      5-min Rain = 0
KDC1 120727Z 18004KT 01/M09 A3017 RMK A01 T00051092  RH  048%=      5-min Rain = 0
KDC1 120728Z 18005KT 01/M09 A3017 RMK A01 T00061093  RH  048%=      5-min Rain = 0
KDC1 120729Z 18004KT 01/M09 A3017 RMK A01 T00061093  RH  048%=      5-min Rain = 0
KDC1 120730Z 19004KT 01/M09 A3016 RMK A01 T00061093  RH  048%=      5-min Rain = 0
KDC1 120731Z 18004KT 01/M09 A3016 RMK A01 T00061093  RH  047%=      5-min Rain = 0
KDC1 120732Z 18004KT 01/M09 A3016 RMK A01 T00061094  RH  047%=      5-min Rain = 0
KDC1 120733Z 18005KT 01/M09 A3016 RMK A01 T00051094  RH  047%=      5-min Rain = 0
KDC1 120734Z 18005KT 01/M10 A3016 RMK A01 T00051095  RH  047%=      5-min Rain = 0
KDC1 120735Z 18004KT 01/M10 A3016 RMK A01 T00051095  RH  047%=      5-min Rain = 0
KDC1 120736Z 18005KT 01/M10 A3016 RMK A01 T00051095  RH  047%=      5-min Rain = 0
KDC1 120737Z 18004KT 01/M10 A3016 RMK A01 T00051095  RH  047%=      5-min Rain = 0
KDC1 120738Z 18004KT 01/M10 A3016 RMK A01 T00051096  RH  047%=      5-min Rain = 0
KDC1 120739Z 18004KT 01/M10 A3016 RMK A01 T00051096  RH  047%=      5-min Rain = 0
KDC1 120740Z 18006KT 01/M10 A3016 RMK A01 T00051095  RH  047%=      5-min Rain = 0
KDC1 120741Z 17004KT 01/M10 A3016 RMK A01 T00051096  RH  047%=      5-min Rain = 0
KDC1 120742Z 17005KT 00/M10 A3016 RMK A01 T00041096  RH  047%=      5-min Rain = 0
KDC1 120743Z 17005KT 01/M10 A3016 RMK A01 T00051096  RH  047%=      5-min Rain = 0
KDC1 120744Z 18005KT 01/M10 A3016 RMK A01 T00051095  RH  047%=      5-min Rain = 0
KDC1 120745Z 18005KT 01/M10 A3016 RMK A01 T00051095  RH  047%=      5-min Rain = 0
KDC1 120746Z 17004KT 01/M10 A3016 RMK A01 T00051095  RH  047%=      5-min Rain = 0
KDC1 120747Z 18004KT 01/M10 A3016 RMK A01 T00051095  RH  047%=      5-min Rain = 0
KDC1 120748Z 18005KT 01/M09 A3016 RMK A01 T00051094  RH  047%=      5-min Rain = 0
KDC1 120749Z 18004KT 01/M10 A3016 RMK A01 T00051095  RH  047%=      5-min Rain = 0
KDC1 120750Z 18004KT 00/M10 A3016 RMK A01 T00041095  RH  047%=      5-min Rain = 0
KDC1 120751Z 18005KT 00/M10 A3016 RMK A01 T00041095  RH  048%=      5-min Rain = 0
KDC1 120752Z 18004KT 00/M09 A3016 RMK A01 T00041094  RH  048%=      5-min Rain = 0
KDC1 120753Z 18004KT 00/M09 A3016 RMK A01 T00031094  RH  048%=      5-min Rain = 0
KDC1 120754Z 18004KT 00/M10 A3017 RMK A01 T00031095  RH  048%=      5-min Rain = 0
KDC1 120755Z 18004KT 00/M09 A3017 RMK A01 T00021094  RH  048%=      5-min Rain = 0
KDC1 120756Z 18004KT 00/M09 A3017 RMK A01 T00031094  RH  048%=      5-min Rain = 0
KDC1 120757Z 17004KT 00/M09 A3017 RMK A01 T00021094  RH  048%=      5-min Rain = 0
KDC1 120758Z 17005KT 00/M09 A3017 RMK A01 T00021094  RH  048%=      5-min Rain = 0
KDC1 120759Z 16004KT 00/M09 A3016 RMK A01 T00011094  RH  049%=      5-min Rain = 0
KDC1 120800Z 16005KT 00/M09 A3016 RMK A01 T00011094  RH  049%=      5-min Rain = 0
KDC1 120801Z 15005KT 00/M09 A3016 RMK A01 T00011094  RH  049%=      5-min Rain = 0
KDC1 120802Z 15005KT 00/09 A3017 RMK A01 T00000-94  RH  049%=      5-min Rain = 0
KDC1 120803Z 15005KT 00/09 A3017 RMK A01 T00-00-93  RH  050%=      5-min Rain = 0
KDC1 120804Z 15004KT 00/09 A3017 RMK A01 T00-00-93  RH  050%=      5-min Rain = 0
KDC1 120805Z 15004KT M00/M09 A3017 RMK A01 T10011093  RH  050%=      5-min Rain = 0
KDC1 120806Z 16004KT M00/M09 A3017 RMK A01 T10011093  RH  050%=      5-min Rain = 0
KDC1 120807Z 15004KT M00/M09 A3017 RMK A01 T10021094  RH  050%=      5-min Rain = 0
KDC1 120808Z 15004KT M00/M09 A3017 RMK A01 T10021094  RH  050%=      5-min Rain = 0
KDC1 120809Z 14004KT M00/M09 A3017 RMK A01 T10031094  RH  050%=      5-min Rain = 0
KDC1 120810Z 14004KT M00/M09 A3017 RMK A01 T10031094  RH  050%=      5-min Rain = 0
KDC1 120811Z 14004KT M01/M10 A3017 RMK A01 T10051095  RH  051%=      5-min Rain = 0
KDC1 120812Z 14004KT M01/M10 A3017 RMK A01 T10061095  RH  051%=      5-min Rain = 0
KDC1 120813Z 14004KT M01/M10 A3017 RMK A01 T10061095  RH  051%=      5-min Rain = 0
KDC1 120814Z 14004KT M01/M10 A3017 RMK A01 T10071095  RH  051%=      5-min Rain = 0
KDC1 120815Z 14004KT M01/M09 A3017 RMK A01 T10081094  RH  052%=      5-min Rain = 0
KDC1 120816Z 14004KT M01/M09 A3017 RMK A01 T10081094  RH  052%=      5-min Rain = 0
KDC1 120817Z 14004KT M01/M09 A3017 RMK A01 T10091094  RH  053%=      5-min Rain = 0
KDC1 120818Z 14004KT M01/M10 A3017 RMK A01 T10101095  RH  053%=      5-min Rain = 0
KDC1 120819Z 14003KT M01/M09 A3017 RMK A01 T10101094  RH  053%=      5-min Rain = 0
KDC1 120820Z 14003KT M01/M09 A3017 RMK A01 T10101094  RH  053%=      5-min Rain = 0
KDC1 120821Z 15003KT M01/M09 A3017 RMK A01 T10111094  RH  053%=      5-min Rain = 0
KDC1 120822Z 14002KT M01/M10 A3017 RMK A01 T10111095  RH  053%=      5-min Rain = 0
KDC1 120823Z 14003KT M01/M10 A3017 RMK A01 T10111095  RH  053%=      5-min Rain = 0
KDC1 120824Z 13003KT M01/M10 A3017 RMK A01 T10111095  RH  053%=      5-min Rain = 0
KDC1 120825Z 14002KT M01/M10 A3017 RMK A01 T10111095  RH  053%=      5-min Rain = 0
KDC1 120826Z 14002KT M01/M09 A3017 RMK A01 T10111094  RH  053%=      5-min Rain = 0
KDC1 120827Z 13002KT M01/M10 A3017 RMK A01 T10111095  RH  053%=      5-min Rain = 0
KDC1 120828Z 13001KT M01/M10 A3017 RMK A01 T10111095  RH  053%=      5-min Rain = 0
KDC1 120829Z 13001KT M01/M10 A3017 RMK A01 T10121096  RH  053%=      5-min Rain = 0
KDC1 120830Z 12001KT M01/M10 A3017 RMK A01 T10121096  RH  053%=      5-min Rain = 0
KDC1 120831Z 12001KT M01/M10 A3017 RMK A01 T10121095  RH  053%=      5-min Rain = 0
KDC1 120832Z 11001KT M01/M09 A3017 RMK A01 T10121094  RH  053%=      5-min Rain = 0
KDC1 120833Z 11000KT M01/M09 A3017 RMK A01 T10121094  RH  054%=      5-min Rain = 0
KDC1 120834Z 12001KT M01/M09 A3017 RMK A01 T10121094  RH  054%=      5-min Rain = 0
KDC1 120835Z 13001KT M01/M09 A3017 RMK A01 T10131094  RH  054%=      5-min Rain = 0
KDC1 120836Z 13002KT M01/M09 A3017 RMK A01 T10131094  RH  054%=      5-min Rain = 0
KDC1 120837Z 11001KT M01/M10 A3017 RMK A01 T10131095  RH  054%=      5-min Rain = 0
KDC1 120838Z 12000KT M01/M10 A3017 RMK A01 T10131095  RH  054%=      5-min Rain = 0
KDC1 120839Z 10001KT M01/M10 A3017 RMK A01 T10131096  RH  054%=      5-min Rain = 0
KDC1 120840Z 09000KT M01/M10 A3017 RMK A01 T10141096  RH  054%=      5-min Rain = 0
KDC1 120841Z 00000KT M01/M10 A3017 RMK A01 T10141096  RH  053%=      5-min Rain = 0
KDC1 120842Z 00000KT M01/M10 A3017 RMK A01 T10141097  RH  053%=      5-min Rain = 0
KDC1 120843Z 10000KT M01/M10 A3017 RMK A01 T10141097  RH  053%=      5-min Rain = 0
KDC1 120844Z 00000KT M02/M10 A3017 RMK A01 T10151098  RH  053%=      5-min Rain = 0
KDC1 120845Z 00000KT M02/M10 A3017 RMK A01 T10151097  RH  054%=      5-min Rain = 0
KDC1 120846Z 10000KT M02/M10 A3017 RMK A01 T10151096  RH  054%=      5-min Rain = 0
KDC1 120847Z 09001KT M02/M10 A3017 RMK A01 T10161096  RH  054%=      5-min Rain = 0
KDC1 120848Z 09000KT M02/M10 A3017 RMK A01 T10161097  RH  054%=      5-min Rain = 0
KDC1 120849Z 11001KT M02/M10 A3017 RMK A01 T10161098  RH  054%=      5-min Rain = 0
KDC1 120850Z 14001KT M02/M10 A3017 RMK A01 T10161099  RH  053%=      5-min Rain = 0
KDC1 120851Z 14001KT M02/M10 A3017 RMK A01 T10171100  RH  053%=      5-min Rain = 0
KDC1 120852Z 14000KT M02/M10 A3017 RMK A01 T10161100  RH  053%=      5-min Rain = 0
KDC1 120853Z 15001KT M02/M10 A3017 RMK A01 T10161099  RH  053%=      5-min Rain = 0
KDC1 120854Z 14001KT M02/M10 A3017 RMK A01 T10161099  RH  053%=      5-min Rain = 0
KDC1 120855Z 15001KT M02/M10 A3017 RMK A01 T10161099  RH  053%=      5-min Rain = 0
KDC1 120856Z 16001KT M02/M10 A3017 RMK A01 T10161099  RH  053%=      5-min Rain = 0
KDC1 120857Z 17001KT M02/M10 A3017 RMK A01 T10161099  RH  053%=      5-min Rain = 0
KDC1 120858Z 17001KT M02/M10 A3017 RMK A01 T10161098  RH  053%=      5-min Rain = 0
KDC1 120859Z 17000KT M02/M10 A3017 RMK A01 T10161098  RH  053%=      5-min Rain = 0
KDC1 120900Z 00000KT M02/M10 A3017 RMK A01 T10161098  RH  053%=      5-min Rain = 0
KDC1 120901Z 00000KT M02/M10 A3017 RMK A01 T10161098  RH  053%=      5-min Rain = 0
KDC1 120902Z 00000KT M02/M10 A3017 RMK A01 T10151098  RH  053%=      5-min Rain = 0
KDC1 120903Z 29000KT M02/M10 A3017 RMK A01 T10151095  RH  054%=      5-min Rain = 0
KDC1 120904Z 28000KT M02/M09 A3017 RMK A01 T10151091  RH  056%=      5-min Rain = 0
KDC1 120905Z 27000KT M02/M09 A3017 RMK A01 T10171091  RH  057%=      5-min Rain = 0
KDC1 120906Z 26000KT M02/M09 A3017 RMK A01 T10181090  RH  058%=      5-min Rain = 0
KDC1 120907Z 21000KT M02/M09 A3017 RMK A01 T10191089  RH  059%=      5-min Rain = 0
KDC1 120908Z 23001KT M02/M09 A3017 RMK A01 T10191087  RH  060%=      5-min Rain = 0
KDC1 120909Z 24001KT M02/M09 A3017 RMK A01 T10191086  RH  060%=      5-min Rain = 0
KDC1 120910Z 23001KT M02/M09 A3016 RMK A01 T10201086  RH  060%=      5-min Rain = 0
KDC1 120911Z 23002KT M02/M09 A3016 RMK A01 T10201086  RH  061%=      5-min Rain = 0
KDC1 120912Z 21002KT M02/M09 A3016 RMK A01 T10201088  RH  060%=      5-min Rain = 0
KDC1 120913Z 19001KT M02/M09 A3016 RMK A01 T10181090  RH  058%=      5-min Rain = 0
KDC1 120914Z 18002KT M02/M09 A3016 RMK A01 T10171091  RH  057%=      5-min Rain = 0
KDC1 120915Z 19001KT M02/M09 A3016 RMK A01 T10161093  RH  056%=      5-min Rain = 0
KDC1 120916Z 20001KT M02/M09 A3016 RMK A01 T10151094  RH  055%=      5-min Rain = 0
KDC1 120917Z 22001KT M01/M09 A3016 RMK A01 T10141094  RH  054%=      5-min Rain = 0
KDC1 120918Z 21001KT M01/M09 A3016 RMK A01 T10141094  RH  054%=      5-min Rain = 0
KDC1 120919Z 19001KT M01/M09 A3016 RMK A01 T10141094  RH  054%=      5-min Rain = 0
KDC1 120920Z 22000KT M01/M10 A3016 RMK A01 T10141095  RH  054%=      5-min Rain = 0
KDC1 120921Z 24001KT M01/M10 A3016 RMK A01 T10141095  RH  054%=      5-min Rain = 0
KDC1 120922Z 26002KT M01/M10 A3016 RMK A01 T10141095  RH  054%=      5-min Rain = 0
KDC1 120923Z 26002KT M02/M09 A3016 RMK A01 T10151094  RH  055%=      5-min Rain = 0
KDC1 120924Z 27002KT M02/M09 A3016 RMK A01 T10171094  RH  056%=      5-min Rain = 0
KDC1 120925Z 25001KT M02/M09 A3016 RMK A01 T10191094  RH  057%=      5-min Rain = 0
KDC1 120926Z 23001KT M02/M09 A3016 RMK A01 T10211093  RH  058%=      5-min Rain = 0
KDC1 120927Z 22001KT M02/M09 A3016 RMK A01 T10221090  RH  060%=      5-min Rain = 0
KDC1 120928Z 22002KT M02/M09 A3016 RMK A01 T10231090  RH  060%=      5-min Rain = 0
KDC1 120929Z 22003KT M02/M09 A3016 RMK A01 T10221090  RH  059%=      5-min Rain = 0
KDC1 120930Z 22002KT M02/M09 A3016 RMK A01 T10191090  RH  058%=      5-min Rain = 0
KDC1 120931Z 21003KT M02/M09 A3016 RMK A01 T10181092  RH  057%=      5-min Rain = 0
KDC1 120932Z 20003KT M02/M09 A3016 RMK A01 T10161093  RH  056%=      5-min Rain = 0
KDC1 120933Z 20003KT M01/M09 A3016 RMK A01 T10131094  RH  054%=      5-min Rain = 0
KDC1 120934Z 19003KT M01/M10 A3016 RMK A01 T10121095  RH  053%=      5-min Rain = 0
KDC1 120935Z 19004KT M01/M10 A3016 RMK A01 T10111095  RH  053%=      5-min Rain = 0
KDC1 120936Z 19003KT M01/M10 A3017 RMK A01 T10091095  RH  052%=      5-min Rain = 0
KDC1 120937Z 19003KT M01/M10 A3017 RMK A01 T10081095  RH  051%=      5-min Rain = 0
KDC1 120938Z 19002KT M01/M10 A3017 RMK A01 T10071096  RH  051%=      5-min Rain = 0
KDC1 120939Z 19002KT M01/M10 A3017 RMK A01 T10071097  RH  051%=      5-min Rain = 0
KDC1 120940Z 18001KT M01/M10 A3017 RMK A01 T10061097  RH  050%=      5-min Rain = 0
KDC1 120941Z 21001KT M01/M10 A3017 RMK A01 T10061098  RH  050%=      5-min Rain = 0
KDC1 120942Z 20001KT M01/M10 A3017 RMK A01 T10061098  RH  050%=      5-min Rain = 0
KDC1 120943Z 22001KT M01/M10 A3017 RMK A01 T10061098  RH  050%=      5-min Rain = 0
KDC1 120944Z 22001KT M01/M10 A3017 RMK A01 T10061097  RH  050%=      5-min Rain = 0
KDC1 120945Z 22002KT M01/M10 A3017 RMK A01 T10071095  RH  051%=      5-min Rain = 0
KDC1 120946Z 20002KT M01/M09 A3016 RMK A01 T10071092  RH  053%=      5-min Rain = 0
KDC1 120947Z 20001KT M01/M09 A3016 RMK A01 T10081091  RH  053%=      5-min Rain = 0
KDC1 120948Z 19001KT M01/M09 A3016 RMK A01 T10091092  RH  054%=      5-min Rain = 0
KDC1 120949Z 18002KT M01/M09 A3016 RMK A01 T10101091  RH  054%=      5-min Rain = 0
KDC1 120950Z 18002KT M01/M09 A3016 RMK A01 T10111093  RH  054%=      5-min Rain = 0
KDC1 120951Z 18003KT M01/M09 A3016 RMK A01 T10101094  RH  053%=      5-min Rain = 0
KDC1 120952Z 18003KT M01/M10 A3016 RMK A01 T10091096  RH  052%=      5-min Rain = 0
KDC1 120953Z 17002KT M01/M10 A3016 RMK A01 T10081097  RH  051%=      5-min Rain = 0
KDC1 120954Z 17002KT M01/M10 A3016 RMK A01 T10071098  RH  050%=      5-min Rain = 0
KDC1 120955Z 20001KT M01/M10 A3016 RMK A01 T10071098  RH  050%=      5-min Rain = 0
KDC1 120956Z 20002KT M01/M10 A3016 RMK A01 T10071098  RH  050%=      5-min Rain = 0
KDC1 120957Z 20002KT M01/M10 A3016 RMK A01 T10071098  RH  050%=      5-min Rain = 0
KDC1 120958Z 20002KT M01/M10 A3016 RMK A01 T10061098  RH  050%=      5-min Rain = 0
KDC1 120959Z 20002KT M01/M10 A3016 RMK A01 T10061098  RH  050%=      5-min Rain = 0
KDC1 121000Z 18003KT M01/M10 A3016 RMK A01 T10061098  RH  050%=      5-min Rain = 0
KDC1 121001Z 18003KT M01/M10 A3016 RMK A01 T10051097  RH  050%=      5-min Rain = 0
KDC1 121002Z 18003KT M01/M10 A3016 RMK A01 T10051098  RH  049%=      5-min Rain = 0
KDC1 121003Z 17003KT M00/M10 A3016 RMK A01 T10041097  RH  049%=      5-min Rain = 0
KDC1 121004Z 17003KT M00/M10 A3016 RMK A01 T10041097  RH  050%=      5-min Rain = 0
KDC1 121005Z 17004KT M00/M10 A3016 RMK A01 T10041096  RH  050%=      5-min Rain = 0
KDC1 121006Z 17004KT M01/M10 A3016 RMK A01 T10051096  RH  050%=      5-min Rain = 0
KDC1 121007Z 16005KT M01/M10 A3016 RMK A01 T10051096  RH  050%=      5-min Rain = 0
KDC1 121008Z 15005KT M01/M10 A3016 RMK A01 T10051096  RH  050%=      5-min Rain = 0
KDC1 121009Z 15005KT M01/M10 A3016 RMK A01 T10051095  RH  051%=      5-min Rain = 0
KDC1 121010Z 15005KT M01/M10 A3016 RMK A01 T10061096  RH  050%=      5-min Rain = 0
KDC1 121011Z 16004KT M01/M10 A3016 RMK A01 T10061096  RH  051%=      5-min Rain = 0
KDC1 121012Z 16005KT M01/M10 A3016 RMK A01 T10071096  RH  051%=      5-min Rain = 0
KDC1 121013Z 15005KT M01/M10 A3016 RMK A01 T10071096  RH  051%=      5-min Rain = 0
KDC1 121014Z 15004KT M01/M10 A3016 RMK A01 T10071096  RH  051%=      5-min Rain = 0
KDC1 121015Z 16005KT M01/M10 A3016 RMK A01 T10081097  RH  051%=      5-min Rain = 0
KDC1 121016Z 15005KT M01/M10 A3016 RMK A01 T10091097  RH  051%=      5-min Rain = 0
KDC1 121017Z 15005KT M01/M10 A3016 RMK A01 T10101097  RH  052%=      5-min Rain = 0
KDC1 121018Z 15006KT M01/M10 A3016 RMK A01 T10101097  RH  052%=      5-min Rain = 0
KDC1 121019Z 15006KT M01/M10 A3016 RMK A01 T10121097  RH  052%=      5-min Rain = 0
KDC1 121020Z 14006KT M01/M10 A3016 RMK A01 T10121097  RH  053%=      5-min Rain = 0
KDC1 121021Z 13006KT M01/M10 A3016 RMK A01 T10141096  RH  054%=      5-min Rain = 0
KDC1 121022Z 13006KT M02/M09 A3016 RMK A01 T10151094  RH  055%=      5-min Rain = 0
KDC1 121023Z 12006KT M02/M09 A3016 RMK A01 T10151093  RH  055%=      5-min Rain = 0
KDC1 121024Z 13005KT M02/M09 A3016 RMK A01 T10161093  RH  056%=      5-min Rain = 0
KDC1 121025Z 13005KT M02/M09 A3016 RMK A01 T10171093  RH  056%=      5-min Rain = 0
KDC1 121026Z 14004KT M02/M09 A3016 RMK A01 T10171092  RH  057%=      5-min Rain = 0
KDC1 121027Z 13004KT M02/M09 A3016 RMK A01 T10181091  RH  058%=      5-min Rain = 0
KDC1 121028Z 13004KT M02/M09 A3016 RMK A01 T10191091  RH  058%=      5-min Rain = 0
KDC1 121029Z 12004KT M02/M09 A3016 RMK A01 T10191091  RH  058%=      5-min Rain = 0
KDC1 121030Z 12004KT M02/M09 A3016 RMK A01 T10201091  RH  058%=      5-min Rain = 0
KDC1 121031Z 12004KT M02/M09 A3016 RMK A01 T10201092  RH  058%=      5-min Rain = 0
KDC1 121032Z 12004KT M02/M09 A3016 RMK A01 T10201092  RH  058%=      5-min Rain = 0
KDC1 121033Z 13004KT M02/M09 A3016 RMK A01 T10211092  RH  058%=      5-min Rain = 0
KDC1 121034Z 12004KT M02/M09 A3016 RMK A01 T10221093  RH  058%=      5-min Rain = 0
KDC1 121035Z 12004KT M02/M09 A3016 RMK A01 T10221093  RH  058%=      5-min Rain = 0
KDC1 121036Z 12003KT M02/M09 A3016 RMK A01 T10231094  RH  058%=      5-min Rain = 0
KDC1 121037Z 12003KT M02/M09 A3016 RMK A01 T10231093  RH  059%=      5-min Rain = 0
KDC1 121038Z 13002KT M02/M09 A3016 RMK A01 T10241094  RH  058%=      5-min Rain = 0
KDC1 121039Z 12002KT M02/M10 A3016 RMK A01 T10241095  RH  058%=      5-min Rain = 0
KDC1 121040Z 12002KT M02/M10 A3016 RMK A01 T10241095  RH  058%=      5-min Rain = 0
KDC1 121041Z 12002KT M02/M10 A3016 RMK A01 T10241095  RH  058%=      5-min Rain = 0
KDC1 121042Z 11002KT M02/M10 A3016 RMK A01 T10241095  RH  058%=      5-min Rain = 0
KDC1 121043Z 10002KT M02/M10 A3016 RMK A01 T10241097  RH  058%=      5-min Rain = 0
KDC1 121044Z 10002KT M02/M10 A3016 RMK A01 T10241098  RH  057%=      5-min Rain = 0
KDC1 121045Z 09002KT M03/M10 A3016 RMK A01 T10251099  RH  057%=      5-min Rain = 0
KDC1 121046Z 08002KT M03/M10 A3016 RMK A01 T10251099  RH  057%=      5-min Rain = 0
KDC1 121047Z 08002KT M03/M10 A3016 RMK A01 T10251099  RH  057%=      5-min Rain = 0
KDC1 121048Z 09002KT M03/M10 A3016 RMK A01 T10251099  RH  057%=      5-min Rain = 0
KDC1 121049Z 09002KT M03/M10 A3016 RMK A01 T10251099  RH  057%=      5-min Rain = 0
KDC1 121050Z 09002KT M03/M10 A3016 RMK A01 T10251100  RH  057%=      5-min Rain = 0
KDC1 121051Z 09002KT M03/M10 A3015 RMK A01 T10251100  RH  056%=      5-min Rain = 0
KDC1 121052Z 09002KT M03/M10 A3015 RMK A01 T10251100  RH  056%=      5-min Rain = 0
KDC1 121053Z 10002KT M03/M10 A3015 RMK A01 T10251101  RH  056%=      5-min Rain = 0
KDC1 121054Z 10002KT M03/M10 A3015 RMK A01 T10251101  RH  056%=      5-min Rain = 0
KDC1 121055Z 09001KT M03/M10 A3015 RMK A01 T10261101  RH  056%=      5-min Rain = 0
KDC1 121056Z 09001KT M03/M10 A3015 RMK A01 T10261101  RH  056%=      5-min Rain = 0
KDC1 121057Z 09001KT M03/M10 A3015 RMK A01 T10271101  RH  057%=      5-min Rain = 0
KDC1 121058Z 10001KT M03/M10 A3015 RMK A01 T10271101  RH  057%=      5-min Rain = 0
KDC1 121059Z 11001KT M03/M10 A3015 RMK A01 T10271101  RH  057%=      5-min Rain = 0
KDC1 121100Z 11001KT M03/M10 A3015 RMK A01 T10271101  RH  057%=      5-min Rain = 0
KDC1 121101Z 11001KT M03/M10 A3015 RMK A01 T10271101  RH  057%=      5-min Rain = 0
KDC1 121102Z 12001KT M03/M10 A3015 RMK A01 T10271101  RH  057%=      5-min Rain = 0
KDC1 121103Z 13001KT M03/M10 A3015 RMK A01 T10271102  RH  057%=      5-min Rain = 0
KDC1 121104Z 13001KT M03/M10 A3015 RMK A01 T10271101  RH  057%=      5-min Rain = 0
KDC1 121105Z 13000KT M03/M10 A3015 RMK A01 T10271101  RH  056%=      5-min Rain = 0
KDC1 121106Z 11000KT M03/M10 A3015 RMK A01 T10271102  RH  056%=      5-min Rain = 0
KDC1 121107Z 00000KT M03/M10 A3015 RMK A01 T10281102  RH  056%=      5-min Rain = 0
KDC1 121108Z 00000KT M03/M10 A3015 RMK A01 T10271102  RH  057%=      5-min Rain = 0
KDC1 121109Z 00000KT M03/M10 A3015 RMK A01 T10281101  RH  057%=      5-min Rain = 0
KDC1 121110Z 00000KT M03/M10 A3015 RMK A01 T10281101  RH  057%=      5-min Rain = 0
KDC1 121111Z 00000KT M03/M10 A3015 RMK A01 T10281101  RH  057%=      5-min Rain = 0
KDC1 121112Z 00000KT M03/M10 A3015 RMK A01 T10271101  RH  057%=      5-min Rain = 0
KDC1 121113Z 00000KT M03/M10 A3015 RMK A01 T10271102  RH  056%=      5-min Rain = 0
KDC1 121114Z 00000KT M03/M10 A3015 RMK A01 T10261101  RH  056%=      5-min Rain = 0
KDC1 121115Z 00000KT M03/M10 A3015 RMK A01 T10261098  RH  058%=      5-min Rain = 0
KDC1 121116Z 28000KT M03/M10 A3015 RMK A01 T10281095  RH  060%=      5-min Rain = 0
KDC1 121117Z 28001KT M03/M09 A3015 RMK A01 T10291093  RH  061%=      5-min Rain = 0
KDC1 121118Z 28001KT M03/M09 A3015 RMK A01 T10301093  RH  062%=      5-min Rain = 0
KDC1 121119Z 29001KT M03/M09 A3015 RMK A01 T10311093  RH  062%=      5-min Rain = 0
KDC1 121120Z 29001KT M03/M09 A3015 RMK A01 T10311094  RH  062%=      5-min Rain = 0
KDC1 121121Z 29001KT M03/M09 A3015 RMK A01 T10311092  RH  063%=      5-min Rain = 0
KDC1 121122Z 30001KT M03/M09 A3015 RMK A01 T10321089  RH  065%=      5-min Rain = 0
KDC1 121123Z 30001KT M03/M09 A3015 RMK A01 T10341091  RH  065%=      5-min Rain = 0
KDC1 121124Z 30002KT M04/M09 A3015 RMK A01 T10351093  RH  064%=      5-min Rain = 0
KDC1 121125Z 29002KT M04/M09 A3015 RMK A01 T10361091  RH  065%=      5-min Rain = 0
KDC1 121126Z 28002KT M04/M09 A3015 RMK A01 T10361090  RH  066%=      5-min Rain = 0
KDC1 121127Z 28002KT M04/M09 A3015 RMK A01 T10371088  RH  068%=      5-min Rain = 0
KDC1 121128Z 27002KT M04/M09 A3015 RMK A01 T10371087  RH  068%=      5-min Rain = 0
KDC1 121129Z 27002KT M04/M09 A3015 RMK A01 T10371086  RH  069%=      5-min Rain = 0
KDC1 121130Z 27002KT M04/M09 A3015 RMK A01 T10371086  RH  068%=      5-min Rain = 0
KDC1 121131Z 27002KT M04/M09 A3015 RMK A01 T10371088  RH  068%=      5-min Rain = 0
KDC1 121132Z 25002KT M04/M09 A3015 RMK A01 T10361088  RH  067%=      5-min Rain = 0
KDC1 121133Z 25002KT M04/M09 A3015 RMK A01 T10361089  RH  067%=      5-min Rain = 0
KDC1 121134Z 24002KT M04/M09 A3015 RMK A01 T10351090  RH  065%=      5-min Rain = 0
KDC1 121135Z 21002KT M03/M09 A3015 RMK A01 T10331091  RH  064%=      5-min Rain = 0
KDC1 121136Z 20001KT M03/M09 A3015 RMK A01 T10311092  RH  063%=      5-min Rain = 0
KDC1 121137Z 20002KT M03/M09 A3015 RMK A01 T10301093  RH  062%=      5-min Rain = 0
KDC1 121138Z 19001KT M03/M09 A3015 RMK A01 T10301094  RH  061%=      5-min Rain = 0
KDC1 121139Z 19001KT M03/M10 A3015 RMK A01 T10301095  RH  061%=      5-min Rain = 0
KDC1 121140Z 19001KT M03/M10 A3015 RMK A01 T10301096  RH  060%=      5-min Rain = 0
KDC1 121141Z 20001KT M03/M10 A3015 RMK A01 T10301096  RH  060%=      5-min Rain = 0
KDC1 121142Z 21002KT M03/M10 A3016 RMK A01 T10301096  RH  060%=      5-min Rain = 0
KDC1 121143Z 19002KT M03/M10 A3016 RMK A01 T10301095  RH  061%=      5-min Rain = 0
KDC1 121144Z 19002KT M03/M09 A3016 RMK A01 T10311094  RH  062%=      5-min Rain = 0
KDC1 121145Z 18001KT M03/M09 A3016 RMK A01 T10301093  RH  062%=      5-min Rain = 0
KDC1 121146Z 19002KT M03/M09 A3016 RMK A01 T10301092  RH  062%=      5-min Rain = 0
KDC1 121147Z 18002KT M03/M09 A3016 RMK A01 T10291093  RH  061%=      5-min Rain = 0
KDC1 121148Z 17002KT M03/M09 A3016 RMK A01 T10291094  RH  061%=      5-min Rain = 0
KDC1 121149Z 16002KT M03/M10 A3016 RMK A01 T10301096  RH  060%=      5-min Rain = 0
KDC1 121150Z 16002KT M03/M10 A3016 RMK A01 T10311096  RH  060%=      5-min Rain = 0
KDC1 121151Z 14001KT M03/M10 A3016 RMK A01 T10311096  RH  061%=      5-min Rain = 0
KDC1 121152Z 13001KT M03/M10 A3016 RMK A01 T10311095  RH  061%=      5-min Rain = 0
KDC1 121153Z 14001KT M03/M09 A3016 RMK A01 T10311092  RH  063%=      5-min Rain = 0
KDC1 121154Z 10001KT M03/M09 A3016 RMK A01 T10331092  RH  064%=      5-min Rain = 0
KDC1 121155Z 05001KT M03/M09 A3016 RMK A01 T10341092  RH  064%=      5-min Rain = 0
KDC1 121156Z 06001KT M04/M09 A3017 RMK A01 T10351094  RH  064%=      5-min Rain = 0
KDC1 121157Z 08001KT M04/M10 A3016 RMK A01 T10371095  RH  064%=      5-min Rain = 0
KDC1 121158Z 08000KT M04/M10 A3017 RMK A01 T10371095  RH  064%=      5-min Rain = 0
KDC1 121159Z 12000KT M04/M10 A3017 RMK A01 T10371095  RH  064%=      5-min Rain = 0
KDC1 121200Z 10000KT M04/M10 A3017 RMK A01 T10381095  RH  064%=      5-min Rain = 0
KDC1 121201Z 12000KT M04/M10 A3017 RMK A01 T10391098  RH  064%=      5-min Rain = 0
KDC1 121202Z 10000KT M04/M10 A3017 RMK A01 T10391097  RH  064%=      5-min Rain = 0
KDC1 121203Z 11001KT M04/M10 A3017 RMK A01 T10401096  RH  065%=      5-min Rain = 0
KDC1 121204Z 08000KT M04/M10 A3016 RMK A01 T10401096  RH  065%=      5-min Rain = 0
KDC1 121205Z 00000KT M04/M10 A3016 RMK A01 T10401095  RH  066%=      5-min Rain = 0
KDC1 121206Z 00000KT M04/M09 A3017 RMK A01 T10401093  RH  067%=      5-min Rain = 0
KDC1 121207Z 00000KT M04/M09 A3017 RMK A01 T10401091  RH  068%=      5-min Rain = 0
KDC1 121208Z 16000KT M04/M09 A3017 RMK A01 T10411091  RH  068%=      5-min Rain = 0
KDC1 121209Z 12000KT M04/M09 A3017 RMK A01 T10411090  RH  069%=      5-min Rain = 0
KDC1 121210Z 14001KT M04/M09 A3017 RMK A01 T10411090  RH  069%=      5-min Rain = 0
KDC1 121211Z 16002KT M04/M09 A3016 RMK A01 T10411089  RH  069%=      5-min Rain = 0
KDC1 121212Z 15001KT M04/M09 A3016 RMK A01 T10401088  RH  069%=      5-min Rain = 0
KDC1 121213Z 15001KT M04/M09 A3016 RMK A01 T10401088  RH  069%=      5-min Rain = 0
KDC1 121214Z 14002KT M04/M09 A3016 RMK A01 T10391089  RH  068%=      5-min Rain = 0
KDC1 121215Z 14001KT M04/M09 A3016 RMK A01 T10381090  RH  067%=      5-min Rain = 0
KDC1 121216Z 14001KT M04/M09 A3016 RMK A01 T10371091  RH  066%=      5-min Rain = 0
KDC1 121217Z 14001KT M04/M09 A3016 RMK A01 T10371092  RH  066%=      5-min Rain = 0
KDC1 121218Z 14001KT M04/M09 A3016 RMK A01 T10361093  RH  065%=      5-min Rain = 0
KDC1 121219Z 15001KT M04/M09 A3016 RMK A01 T10361093  RH  064%=      5-min Rain = 0
KDC1 121220Z 14001KT M04/M09 A3016 RMK A01 T10361094  RH  064%=      5-min Rain = 0
KDC1 121221Z 15001KT M04/M09 A3016 RMK A01 T10351094  RH  064%=      5-min Rain = 0
KDC1 121222Z 14001KT M04/M09 A3016 RMK A01 T10351094  RH  063%=      5-min Rain = 0
KDC1 121223Z 13000KT M04/M09 A3016 RMK A01 T10351094  RH  063%=      5-min Rain = 0
KDC1 121224Z 11000KT M04/M10 A3016 RMK A01 T10351095  RH  063%=      5-min Rain = 0
KDC1 121225Z 12001KT M04/M09 A3016 RMK A01 T10351094  RH  064%=      5-min Rain = 0
KDC1 121226Z 12002KT M03/M09 A3016 RMK A01 T10341093  RH  064%=      5-min Rain = 0
KDC1 121227Z 14002KT M03/M09 A3016 RMK A01 T10331092  RH  064%=      5-min Rain = 0
KDC1 121228Z 14002KT M03/M09 A3016 RMK A01 T10321092  RH  063%=      5-min Rain = 0
KDC1 121229Z 14002KT M03/M09 A3016 RMK A01 T10321092  RH  063%=      5-min Rain = 0
KDC1 121230Z 15002KT M03/M09 A3016 RMK A01 T10311093  RH  062%=      5-min Rain = 0
KDC1 121231Z 15003KT M03/M09 A3016 RMK A01 T10301094  RH  061%=      5-min Rain = 0
KDC1 121232Z 15003KT M03/M09 A3016 RMK A01 T10281094  RH  060%=      5-min Rain = 0
KDC1 121233Z 15003KT M03/M10 A3016 RMK A01 T10271095  RH  059%=      5-min Rain = 0
KDC1 121234Z 15004KT M03/M10 A3016 RMK A01 T10271097  RH  059%=      5-min Rain = 0
KDC1 121235Z 15004KT M03/M10 A3016 RMK A01 T10251098  RH  058%=      5-min Rain = 0
KDC1 121236Z 14003KT M03/M10 A3017 RMK A01 T10251099  RH  057%=      5-min Rain = 0
KDC1 121237Z 14003KT M02/M10 A3017 RMK A01 T10241100  RH  056%=      5-min Rain = 0
KDC1 121238Z 14004KT M02/M10 A3017 RMK A01 T10241100  RH  056%=      5-min Rain = 0
KDC1 121239Z 14004KT M02/M10 A3017 RMK A01 T10231100  RH  055%=      5-min Rain = 0
KDC1 121240Z 13004KT M02/M10 A3017 RMK A01 T10231101  RH  055%=      5-min Rain = 0
KDC1 121241Z 13005KT M02/M10 A3017 RMK A01 T10231101  RH  055%=      5-min Rain = 0
KDC1 121242Z 13005KT M02/M10 A3017 RMK A01 T10231101  RH  055%=      5-min Rain = 0
KDC1 121243Z 13005KT M02/M10 A3017 RMK A01 T10221101  RH  055%=      5-min Rain = 0
KDC1 121244Z 13004KT M02/M10 A3017 RMK A01 T10221101  RH  055%=      5-min Rain = 0
KDC1 121245Z 13004KT M02/M10 A3017 RMK A01 T10221101  RH  055%=      5-min Rain = 0
KDC1 121246Z 13004KT M02/M10 A3017 RMK A01 T10221101  RH  055%=      5-min Rain = 0
KDC1 121247Z 13004KT M02/M10 A3017 RMK A01 T10221101  RH  055%=      5-min Rain = 0
KDC1 121248Z 14004KT M02/M10 A3017 RMK A01 T10221101  RH  055%=      5-min Rain = 0
KDC1 121249Z 14004KT M02/M10 A3017 RMK A01 T10211100  RH  055%=      5-min Rain = 0
KDC1 121250Z 14003KT M02/M10 A3017 RMK A01 T10211100  RH  055%=      5-min Rain = 0
KDC1 121251Z 14003KT M02/M10 A3017 RMK A01 T10211100  RH  055%=      5-min Rain = 0
KDC1 121252Z 14003KT M02/M10 A3017 RMK A01 T10211101  RH  054%=      5-min Rain = 0
KDC1 121253Z 14003KT M02/M10 A3017 RMK A01 T10211102  RH  054%=      5-min Rain = 0
KDC1 121254Z 13004KT M02/M10 A3017 RMK A01 T10211103  RH  054%=      5-min Rain = 0
KDC1 121255Z 13004KT M02/M10 A3017 RMK A01 T10211103  RH  053%=      5-min Rain = 0
KDC1 121256Z 13003KT M02/M10 A3017 RMK A01 T10211103  RH  053%=      5-min Rain = 0
KDC1 121257Z 08001KT M02/M10 A3017 RMK A01 T10221104  RH  053%=      5-min Rain = 0
KDC1 121258Z 05001KT M02/M10 A3017 RMK A01 T10241104  RH  054%=      5-min Rain = 0
KDC1 121259Z 04001KT M02/M10 A3017 RMK A01 T10241102  RH  055%=      5-min Rain = 0
KDC1 121300Z 11000KT M03/M10 A3017 RMK A01 T10251102  RH  055%=      5-min Rain = 0
KDC1 121301Z 00000KT M03/M10 A3017 RMK A01 T10251102  RH  056%=      5-min Rain = 0
KDC1 121302Z 00000KT M03/M10 A3017 RMK A01 T10261102  RH  056%=      5-min Rain = 0
KDC1 121303Z 00000KT M03/M10 A3017 RMK A01 T10251101  RH  056%=      5-min Rain = 0
KDC1 121304Z 00000KT M03/M10 A3017 RMK A01 T10251100  RH  056%=      5-min Rain = 0
KDC1 121305Z 00000KT M03/M10 A3017 RMK A01 T10251101  RH  056%=      5-min Rain = 0
KDC1 121306Z 00000KT M03/M10 A3017 RMK A01 T10251100  RH  056%=      5-min Rain = 0
KDC1 121307Z 00000KT M03/M10 A3017 RMK A01 T10251101  RH  056%=      5-min Rain = 0
KDC1 121308Z 25000KT M03/M10 A3017 RMK A01 T10251102  RH  056%=      5-min Rain = 0
KDC1 121309Z 26001KT M03/M10 A3017 RMK A01 T10251102  RH  055%=      5-min Rain = 0
KDC1 121310Z 27001KT M02/M10 A3017 RMK A01 T10241101  RH  056%=      5-min Rain = 0
KDC1 121311Z 27001KT M03/M10 A3017 RMK A01 T10251098  RH  058%=      5-min Rain = 0
KDC1 121312Z 26001KT M03/M10 A3017 RMK A01 T10271096  RH  059%=      5-min Rain = 0
KDC1 121313Z 26001KT M03/M10 A3017 RMK A01 T10281096  RH  059%=      5-min Rain = 0
KDC1 121314Z 25001KT M03/M10 A3017 RMK A01 T10301098  RH  060%=      5-min Rain = 0
KDC1 121315Z 24001KT M03/M10 A3017 RMK A01 T10311097  RH  060%=      5-min Rain = 0
KDC1 121316Z 24001KT M03/M10 A3017 RMK A01 T10311095  RH  062%=      5-min Rain = 0
KDC1 121317Z 23001KT M03/M09 A3017 RMK A01 T10311093  RH  062%=      5-min Rain = 0
KDC1 121318Z 21001KT M03/M09 A3017 RMK A01 T10311093  RH  062%=      5-min Rain = 0
KDC1 121319Z 20001KT M03/M10 A3017 RMK A01 T10311095  RH  062%=      5-min Rain = 0
KDC1 121320Z 21001KT M03/M10 A3017 RMK A01 T10311095  RH  061%=      5-min Rain = 0
KDC1 121321Z 21001KT M03/M10 A3017 RMK A01 T10311095  RH  061%=      5-min Rain = 0
KDC1 121322Z 21001KT M03/M10 A3017 RMK A01 T10311096  RH  061%=      5-min Rain = 0
KDC1 121323Z 21002KT M03/M10 A3017 RMK A01 T10301097  RH  060%=      5-min Rain = 0
KDC1 121324Z 21002KT M03/M10 A3017 RMK A01 T10281097  RH  059%=      5-min Rain = 0
KDC1 121325Z 19002KT M03/M10 A3017 RMK A01 T10271098  RH  058%=      5-min Rain = 0
KDC1 121326Z 19003KT M03/M10 A3017 RMK A01 T10261098  RH  058%=      5-min Rain = 0
KDC1 121327Z 19003KT M03/M10 A3017 RMK A01 T10261099  RH  057%=      5-min Rain = 0
KDC1 121328Z 19003KT M02/M10 A3017 RMK A01 T10241100  RH  056%=      5-min Rain = 0
KDC1 121329Z 19002KT M02/M10 A3017 RMK A01 T10231100  RH  056%=      5-min Rain = 0
KDC1 121330Z 20002KT M02/M10 A3017 RMK A01 T10231101  RH  055%=      5-min Rain = 0
KDC1 121331Z 19002KT M02/M10 A3017 RMK A01 T10221101  RH  055%=      5-min Rain = 0
KDC1 121332Z 16002KT M02/M10 A3017 RMK A01 T10221101  RH  055%=      5-min Rain = 0
KDC1 121333Z 19002KT M02/M10 A3017 RMK A01 T10221102  RH  054%=      5-min Rain = 0
KDC1 121334Z 18003KT M02/M10 A3017 RMK A01 T10221103  RH  054%=      5-min Rain = 0
KDC1 121335Z 19001KT M02/M10 A3017 RMK A01 T10221104  RH  053%=      5-min Rain = 0
KDC1 121336Z 00000KT M02/M10 A3017 RMK A01 T10221104  RH  053%=      5-min Rain = 0
KDC1 121337Z 14000KT M02/M10 A3017 RMK A01 T10211103  RH  054%=      5-min Rain = 0
KDC1 121338Z 00000KT M02/M10 A3017 RMK A01 T10211103  RH  054%=      5-min Rain = 0
KDC1 121339Z 00000KT M02/M10 A3017 RMK A01 T10211102  RH  054%=      5-min Rain = 0
KDC1 121340Z 00000KT M02/M10 A3017 RMK A01 T10211102  RH  054%=      5-min Rain = 0
KDC1 121341Z 00000KT M02/M10 A3017 RMK A01 T10221103  RH  054%=      5-min Rain = 0
KDC1 121342Z 22000KT M02/M10 A3017 RMK A01 T10241104  RH  054%=      5-min Rain = 0
KDC1 121343Z 19001KT M03/M10 A3017 RMK A01 T10251103  RH  055%=      5-min Rain = 0
KDC1 121344Z 19001KT M03/M10 A3017 RMK A01 T10251102  RH  055%=      5-min Rain = 0
KDC1 121345Z 16001KT M02/M10 A3017 RMK A01 T10241101  RH  055%=      5-min Rain = 0
KDC1 121346Z 15000KT M02/M10 A3017 RMK A01 T10241102  RH  055%=      5-min Rain = 0
KDC1 121347Z 00000KT M02/M10 A3017 RMK A01 T10241102  RH  055%=      5-min Rain = 0
KDC1 121348Z 00000KT M02/M10 A3017 RMK A01 T10241102  RH  055%=      5-min Rain = 0
KDC1 121349Z 00000KT M03/M10 A3017 RMK A01 T10251101  RH  056%=      5-min Rain = 0
KDC1 121350Z 00000KT M03/M10 A3017 RMK A01 T10251099  RH  057%=      5-min Rain = 0
KDC1 121351Z 12000KT M03/M10 A3017 RMK A01 T10251099  RH  057%=      5-min Rain = 0
KDC1 121352Z 14001KT M03/M10 A3017 RMK A01 T10251101  RH  056%=      5-min Rain = 0
KDC1 121353Z 13001KT M02/M10 A3017 RMK A01 T10241103  RH  055%=      5-min Rain = 0
KDC1 121354Z 15000KT M02/M10 A3018 RMK A01 T10241103  RH  055%=      5-min Rain = 0
KDC1 121355Z 14003KT M02/M10 A3017 RMK A01 T10241104  RH  054%=      5-min Rain = 0
KDC1 121356Z 14002KT M02/M10 A3018 RMK A01 T10231103  RH  054%=      5-min Rain = 0
KDC1 121357Z 15002KT M02/M10 A3018 RMK A01 T10221104  RH  053%=      5-min Rain = 0
KDC1 121358Z 14002KT M02/M11 A3018 RMK A01 T10211105  RH  053%=      5-min Rain = 0
KDC1 121359Z 12002KT M02/M11 A3018 RMK A01 T10211106  RH  052%=      5-min Rain = 0
KDC1 121400Z 13002KT M02/M11 A3018 RMK A01 T10211106  RH  052%=      5-min Rain = 0
KDC1 121401Z 14003KT M02/M11 A3018 RMK A01 T10211107  RH  052%=      5-min Rain = 0
KDC1 121402Z 15004KT M02/M11 A3018 RMK A01 T10211107  RH  052%=      5-min Rain = 0
KDC1 121403Z 15005KT M02/M11 A3018 RMK A01 T10221107  RH  052%=      5-min Rain = 0
KDC1 121404Z 15004KT M02/M11 A3018 RMK A01 T10231106  RH  053%=      5-min Rain = 0
KDC1 121405Z 15004KT M02/M11 A3018 RMK A01 T10231106  RH  053%=      5-min Rain = 0
KDC1 121406Z 15004KT M02/M11 A3018 RMK A01 T10231106  RH  053%=      5-min Rain = 0
KDC1 121407Z 14004KT M02/M11 A3018 RMK A01 T10231106  RH  053%=      5-min Rain = 0
KDC1 121408Z 14004KT M02/M11 A3018 RMK A01 T10221106  RH  053%=      5-min Rain = 0
KDC1 121409Z 13004KT M02/M11 A3018 RMK A01 T10231106  RH  053%=      5-min Rain = 0
KDC1 121410Z 14003KT M02/M11 A3018 RMK A01 T10231106  RH  053%=      5-min Rain = 0
KDC1 121411Z 14003KT M02/M11 A3018 RMK A01 T10231105  RH  053%=      5-min Rain = 0
KDC1 121412Z 14002KT M02/M10 A3018 RMK A01 T10231104  RH  054%=      5-min Rain = 0
KDC1 121413Z 14003KT M02/M10 A3018 RMK A01 T10231104  RH  054%=      5-min Rain = 0
KDC1 121414Z 14003KT M02/M10 A3018 RMK A01 T10231104  RH  054%=      5-min Rain = 0
KDC1 121415Z 14003KT M02/M10 A3018 RMK A01 T10231104  RH  054%=      5-min Rain = 0
KDC1 121416Z 14003KT M02/M10 A3018 RMK A01 T10231103  RH  054%=      5-min Rain = 0
KDC1 121417Z 14003KT M02/M10 A3018 RMK A01 T10231103  RH  054%=      5-min Rain = 0
KDC1 121418Z 14003KT M02/M10 A3018 RMK A01 T10231103  RH  054%=      5-min Rain = 0
KDC1 121419Z 14003KT M02/M10 A3018 RMK A01 T10231103  RH  054%=      5-min Rain = 0
KDC1 121420Z 14003KT M02/M10 A3018 RMK A01 T10231103  RH  054%=      5-min Rain = 0
KDC1 121421Z 14003KT M02/M10 A3018 RMK A01 T10231103  RH  054%=      5-min Rain = 0
KDC1 121422Z 15003KT M02/M10 A3018 RMK A01 T10241103  RH  055%=      5-min Rain = 0
KDC1 121423Z 15002KT M02/M10 A3018 RMK A01 T10241103  RH  055%=      5-min Rain = 0
KDC1 121424Z 16002KT M02/M10 A3018 RMK A01 T10231102  RH  055%=      5-min Rain = 0
KDC1 121425Z 16002KT M02/M10 A3018 RMK A01 T10231102  RH  055%=      5-min Rain = 0
KDC1 121426Z 16002KT M02/M10 A3018 RMK A01 T10221101  RH  055%=      5-min Rain = 0
KDC1 121427Z 16002KT M02/M10 A3018 RMK A01 T10211100  RH  055%=      5-min Rain = 0
KDC1 121428Z 16003KT M02/M10 A3018 RMK A01 T10201100  RH  054%=      5-min Rain = 0
KDC1 121429Z 16003KT M02/M10 A3018 RMK A01 T10191100  RH  054%=      5-min Rain = 0
KDC1 121430Z 15002KT M02/M10 A3018 RMK A01 T10191101  RH  053%=      5-min Rain = 0
KDC1 121431Z 16002KT M02/M10 A3018 RMK A01 T10191102  RH  053%=      5-min Rain = 0
KDC1 121432Z 16002KT M02/M10 A3018 RMK A01 T10191102  RH  053%=      5-min Rain = 0
KDC1 121433Z 16002KT M02/M10 A3018 RMK A01 T10181101  RH  053%=      5-min Rain = 0
KDC1 121434Z 17002KT M02/M10 A3018 RMK A01 T10181101  RH  053%=      5-min Rain = 0
KDC1 121435Z 17002KT M02/M10 A3018 RMK A01 T10181101  RH  053%=      5-min Rain = 0
KDC1 121436Z 16003KT M02/M10 A3019 RMK A01 T10171101  RH  053%=      5-min Rain = 0
KDC1 121437Z 16003KT M02/M10 A3019 RMK A01 T10171101  RH  053%=      5-min Rain = 0
KDC1 121438Z 17002KT M02/M10 A3019 RMK A01 T10181101  RH  053%=      5-min Rain = 0
KDC1 121439Z 17002KT M02/M10 A3019 RMK A01 T10171101  RH  053%=      5-min Rain = 0
KDC1 121440Z 17002KT M02/M10 A3019 RMK A01 T10171102  RH  052%=      5-min Rain = 0
KDC1 121441Z 15002KT M02/M10 A3019 RMK A01 T10161102  RH  052%=      5-min Rain = 0
KDC1 121442Z 15002KT M02/M10 A3019 RMK A01 T10151101  RH  052%=      5-min Rain = 0
KDC1 121443Z 14002KT M02/M10 A3019 RMK A01 T10151101  RH  052%=      5-min Rain = 0
KDC1 121444Z 13001KT M01/M10 A3019 RMK A01 T10141100  RH  052%=      5-min Rain = 0
KDC1 121445Z 12001KT M01/M10 A3019 RMK A01 T10131100  RH  052%=      5-min Rain = 0
KDC1 121446Z 13001KT M01/M10 A3019 RMK A01 T10121100  RH  051%=      5-min Rain = 0
KDC1 121447Z 13000KT M01/M10 A3019 RMK A01 T10111099  RH  051%=      5-min Rain = 0
KDC1 121448Z 14000KT M01/M10 A3019 RMK A01 T10091098  RH  051%=      5-min Rain = 0
KDC1 121449Z 14000KT M01/M10 A3019 RMK A01 T10081097  RH  051%=      5-min Rain = 0
KDC1 121450Z 14001KT M01/M10 A3019 RMK A01 T10061096  RH  050%=      5-min Rain = 0
KDC1 121451Z 16001KT M01/M10 A3019 RMK A01 T10051096  RH  050%=      5-min Rain = 0
KDC1 121452Z 16001KT M00/M10 A3019 RMK A01 T10041096  RH  050%=      5-min Rain = 0
KDC1 121453Z 17001KT M01/M10 A3019 RMK A01 T10051098  RH  050%=      5-min Rain = 0
KDC1 121454Z 16001KT M01/M10 A3019 RMK A01 T10051097  RH  050%=      5-min Rain = 0
KDC1 121455Z 16001KT M01/M10 A3019 RMK A01 T10051097  RH  050%=      5-min Rain = 0
KDC1 121456Z 16001KT M00/M10 A3019 RMK A01 T10041097  RH  050%=      5-min Rain = 0
KDC1 121457Z 15001KT M00/M10 A3019 RMK A01 T10041097  RH  049%=      5-min Rain = 0
KDC1 121458Z 17000KT M00/M10 A3019 RMK A01 T10041097  RH  049%=      5-min Rain = 0
KDC1 121459Z 16000KT M00/M10 A3019 RMK A01 T10031096  RH  050%=      5-min Rain = 0
KDC1 121500Z 16000KT M00/M09 A3019 RMK A01 T10011094  RH  050%=      5-min Rain = 0
KDC1 121501Z 14000KT 00/09 A3019 RMK A01 T00000-94  RH  049%=      5-min Rain = 0
KDC1 121502Z 00000KT 00/M09 A3019 RMK A01 T00021093  RH  049%=      5-min Rain = 0
KDC1 121503Z 00000KT 00/M09 A3019 RMK A01 T00041094  RH  048%=      5-min Rain = 0
KDC1 121504Z 00000KT 01/M09 A3019 RMK A01 T00061094  RH  047%=      5-min Rain = 0
KDC1 121505Z 06000KT 01/M09 A3019 RMK A01 T00071094  RH  047%=      5-min Rain = 0
KDC1 121506Z 06001KT 01/M10 A3019 RMK A01 T00061096  RH  046%=      5-min Rain = 0
KDC1 121507Z 04000KT 00/M10 A3019 RMK A01 T00041098  RH  046%=      5-min Rain = 0
KDC1 121508Z 03000KT 00/M10 A3019 RMK A01 T00031098  RH  047%=      5-min Rain = 0
KDC1 121509Z 00000KT 00/M10 A3019 RMK A01 T00031098  RH  047%=      5-min Rain = 0
KDC1 121510Z 03000KT 00/M10 A3019 RMK A01 T00031098  RH  047%=      5-min Rain = 0
KDC1 121511Z 12000KT 00/M10 A3019 RMK A01 T00031098  RH  047%=      5-min Rain = 0
KDC1 121512Z 12000KT 00/M10 A3019 RMK A01 T00031097  RH  047%=      5-min Rain = 0
KDC1 121513Z 12000KT 01/M10 A3019 RMK A01 T00051096  RH  047%=      5-min Rain = 0
KDC1 121514Z 12000KT 01/M10 A3019 RMK A01 T00061098  RH  046%=      5-min Rain = 0
KDC1 121515Z 15000KT 01/M10 A3019 RMK A01 T00061098  RH  045%=      5-min Rain = 0
KDC1 121516Z 13001KT 01/M10 A3019 RMK A01 T00061098  RH  046%=      5-min Rain = 0
KDC1 121517Z 14001KT 01/M10 A3019 RMK A01 T00061098  RH  046%=      5-min Rain = 0
KDC1 121518Z 12001KT 01/M10 A3019 RMK A01 T00051098  RH  046%=      5-min Rain = 0
KDC1 121519Z 11000KT 00/M10 A3019 RMK A01 T00041098  RH  046%=      5-min Rain = 0
KDC1 121520Z 10000KT 00/M10 A3019 RMK A01 T00031098  RH  047%=      5-min Rain = 0
KDC1 121521Z 09001KT 00/M10 A3019 RMK A01 T00031097  RH  047%=      5-min Rain = 0
KDC1 121522Z 10001KT 00/M10 A3019 RMK A01 T00031096  RH  047%=      5-min Rain = 0
KDC1 121523Z 12002KT 00/M10 A302 RMK A01 T00041095  RH  047%=      5-min Rain = 0
KDC1 121524Z 12002KT 01/M10 A302 RMK A01 T00051095  RH  047%=      5-min Rain = 0
KDC1 121525Z 10002KT 00/M10 A302 RMK A01 T00041096  RH  047%=      5-min Rain = 0
KDC1 121526Z 08001KT 00/M10 A302 RMK A01 T00041097  RH  047%=      5-min Rain = 0
KDC1 121527Z 07002KT 00/M10 A302 RMK A01 T00031097  RH  047%=      5-min Rain = 0
KDC1 121528Z 08002KT 00/M10 A302 RMK A01 T00031097  RH  047%=      5-min Rain = 0
KDC1 121529Z 09001KT 00/M10 A302 RMK A01 T00041096  RH  047%=      5-min Rain = 0
KDC1 121530Z 10001KT 01/M10 A302 RMK A01 T00051095  RH  047%=      5-min Rain = 0
KDC1 121531Z 10001KT 01/M10 A302 RMK A01 T00061095  RH  047%=      5-min Rain = 0
KDC1 121532Z 09002KT 01/M10 A302 RMK A01 T00061095  RH  047%=      5-min Rain = 0
KDC1 121533Z 08002KT 01/M10 A302 RMK A01 T00061096  RH  046%=      5-min Rain = 0
KDC1 121534Z 09002KT 01/M09 A302 RMK A01 T00071094  RH  047%=      5-min Rain = 0
KDC1 121535Z 09002KT 01/M10 A302 RMK A01 T00071095  RH  046%=      5-min Rain = 0
KDC1 121536Z 09002KT 01/M09 A302 RMK A01 T00071094  RH  047%=      5-min Rain = 0
KDC1 121537Z 09003KT 01/M09 A302 RMK A01 T00081092  RH  047%=      5-min Rain = 0
KDC1 121538Z 09003KT 01/M09 A302 RMK A01 T00081092  RH  047%=      5-min Rain = 0
KDC1 121539Z 10002KT 01/M09 A302 RMK A01 T00091093  RH  047%=      5-min Rain = 0
KDC1 121540Z 12002KT 01/M09 A302 RMK A01 T00101092  RH  047%=      5-min Rain = 0
KDC1 121541Z 12002KT 01/M09 A302 RMK A01 T00111090  RH  047%=      5-min Rain = 0
KDC1 121542Z 12001KT 01/M09 A302 RMK A01 T00121089  RH  047%=      5-min Rain = 0
KDC1 121543Z 13002KT 01/M09 A302 RMK A01 T00131089  RH  047%=      5-min Rain = 0
KDC1 121544Z 12001KT 02/M09 A302 RMK A01 T00151088  RH  046%=      5-min Rain = 0
KDC1 121545Z 06002KT 02/M09 A302 RMK A01 T00171086  RH  046%=      5-min Rain = 0
KDC1 121546Z 07002KT 02/M09 A302 RMK A01 T00161088  RH  046%=      5-min Rain = 0
KDC1 121547Z 07001KT 02/M09 A302 RMK A01 T00161088  RH  046%=      5-min Rain = 0
KDC1 121548Z 11000KT 02/M09 A302 RMK A01 T00161087  RH  046%=      5-min Rain = 0
KDC1 121549Z 07001KT 02/M09 A302 RMK A01 T00181086  RH  046%=      5-min Rain = 0
KDC1 121550Z 07002KT 02/M09 A302 RMK A01 T00191086  RH  046%=      5-min Rain = 0
KDC1 121551Z 07003KT 02/M09 A302 RMK A01 T00191086  RH  045%=      5-min Rain = 0
KDC1 121552Z 08002KT 02/M09 A302 RMK A01 T00181088  RH  045%=      5-min Rain = 0
KDC1 121553Z 05001KT 02/M09 A302 RMK A01 T00171088  RH  045%=      5-min Rain = 0
KDC1 121554Z 05001KT 02/M09 A302 RMK A01 T00181088  RH  045%=      5-min Rain = 0
KDC1 121555Z 12001KT 02/M09 A302 RMK A01 T00191088  RH  045%=      5-min Rain = 0
KDC1 121556Z 13000KT 02/M09 A302 RMK A01 T00211088  RH  044%=      5-min Rain = 0
KDC1 121557Z 15000KT 03/M09 A302 RMK A01 T00251086  RH  044%=      5-min Rain = 0
KDC1 121558Z 12001KT 03/M09 A302 RMK A01 T00271086  RH  043%=      5-min Rain = 0
KDC1 121559Z 12002KT 03/M09 A302 RMK A01 T00291087  RH  042%=      5-min Rain = 0
KDC1 121600Z 09002KT 03/M09 A302 RMK A01 T00281090  RH  042%=      5-min Rain = 0
KDC1 121601Z 08001KT 03/M09 A302 RMK A01 T00261091  RH  042%=      5-min Rain = 0
KDC1 121602Z 08001KT 03/M09 A302 RMK A01 T00261090  RH  042%=      5-min Rain = 0
KDC1 121603Z 11001KT 03/M09 A302 RMK A01 T00251090  RH  043%=      5-min Rain = 0
KDC1 121604Z 16001KT 03/M09 A302 RMK A01 T00251089  RH  043%=      5-min Rain = 0
KDC1 121605Z 16001KT 03/M09 A302 RMK A01 T00251089  RH  043%=      5-min Rain = 0
KDC1 121606Z 14001KT 03/M09 A302 RMK A01 T00251090  RH  043%=      5-min Rain = 0
KDC1 121607Z 13001KT 03/M09 A302 RMK A01 T00261088  RH  043%=      5-min Rain = 0
KDC1 121608Z 09000KT 03/M09 A302 RMK A01 T00281088  RH  042%=      5-min Rain = 0
KDC1 121609Z 00000KT 03/M09 A302 RMK A01 T00291088  RH  042%=      5-min Rain = 0
KDC1 121610Z 10000KT 03/M09 A302 RMK A01 T00301088  RH  042%=      5-min Rain = 0
KDC1 121611Z 14001KT 03/M09 A302 RMK A01 T00301087  RH  042%=      5-min Rain = 0
KDC1 121612Z 14002KT 03/M09 A302 RMK A01 T00321086  RH  042%=      5-min Rain = 0
KDC1 121613Z 15003KT 03/M09 A302 RMK A01 T00331086  RH  041%=      5-min Rain = 0
KDC1 121614Z 16002KT 03/M09 A302 RMK A01 T00321088  RH  041%=      5-min Rain = 0
KDC1 121615Z 19000KT 03/M09 A302 RMK A01 T00321087  RH  041%=      5-min Rain = 0
KDC1 121616Z 16001KT 04/M09 A302 RMK A01 T00351086  RH  041%=      5-min Rain = 0
KDC1 121617Z 16002KT 04/M09 A302 RMK A01 T00361086  RH  040%=      5-min Rain = 0
KDC1 121618Z 15002KT 04/M09 A302 RMK A01 T00361086  RH  040%=      5-min Rain = 0
KDC1 121619Z 18001KT 04/M09 A302 RMK A01 T00361086  RH  040%=      5-min Rain = 0
KDC1 121620Z 13000KT 04/M09 A302 RMK A01 T00361086  RH  041%=      5-min Rain = 0
KDC1 121621Z 15000KT 04/M09 A302 RMK A01 T00371085  RH  041%=      5-min Rain = 0
KDC1 121622Z 17001KT 04/M08 A302 RMK A01 T00391084  RH  040%=      5-min Rain = 0
KDC1 121623Z 15002KT 04/M08 A302 RMK A01 T00411083  RH  040%=      5-min Rain = 0
KDC1 121624Z 15002KT 04/M09 A302 RMK A01 T00411086  RH  039%=      5-min Rain = 0
KDC1 121625Z 14001KT 04/M09 A302 RMK A01 T00401088  RH  039%=      5-min Rain = 0
KDC1 121626Z 15001KT 04/M09 A302 RMK A01 T00401088  RH  039%=      5-min Rain = 0
KDC1 121627Z 17001KT 04/M09 A302 RMK A01 T00391089  RH  039%=      5-min Rain = 0
KDC1 121628Z 19000KT 04/M09 A302 RMK A01 T00381089  RH  039%=      5-min Rain = 0
KDC1 121629Z 00000KT 04/M09 A302 RMK A01 T00381088  RH  039%=      5-min Rain = 0
KDC1 121630Z 22000KT 04/M09 A302 RMK A01 T00391087  RH  039%=      5-min Rain = 0
KDC1 121631Z 19001KT 04/M09 A302 RMK A01 T00401086  RH  039%=      5-min Rain = 0
KDC1 121632Z 16001KT 04/M09 A302 RMK A01 T00411085  RH  039%=      5-min Rain = 0
KDC1 121633Z 16002KT 04/M08 A302 RMK A01 T00431084  RH  039%=      5-min Rain = 0
KDC1 121634Z 15002KT 04/M09 A302 RMK A01 T00431086  RH  038%=      5-min Rain = 0
KDC1 121635Z 10002KT 04/M09 A302 RMK A01 T00421088  RH  038%=      5-min Rain = 0
KDC1 121641Z 06001KT 04/M09 A302 RMK A01 T00401085  RH  039%=      5-min Rain = 0
KDC1 121642Z 08001KT 04/M09 A302 RMK A01 T00421087  RH  039%=      5-min Rain = 0
KDC1 121643Z 08001KT 04/M09 A302 RMK A01 T00421087  RH  038%=      5-min Rain = 0
KDC1 121644Z 08000KT 04/M09 A302 RMK A01 T00431087  RH  038%=      5-min Rain = 0
KDC1 121645Z 11000KT 05/M09 A302 RMK A01 T00451086  RH  038%=      5-min Rain = 0
KDC1 121646Z 05001KT 05/M09 A302 RMK A01 T00471086  RH  038%=      5-min Rain = 0
KDC1 121647Z 07001KT 05/M09 A302 RMK A01 T00461087  RH  037%=      5-min Rain = 0
KDC1 121648Z 08000KT 05/M09 A302 RMK A01 T00461086  RH  038%=      5-min Rain = 0
KDC1 121649Z 05000KT 05/M09 A3019 RMK A01 T00481085  RH  038%=      5-min Rain = 0
KDC1 121650Z 07000KT 05/M09 A3019 RMK A01 T00501085  RH  037%=      5-min Rain = 0
KDC1 121651Z 09000KT 05/M09 A3019 RMK A01 T00511086  RH  036%=      5-min Rain = 0
KDC1 121652Z 00000KT 05/M09 A3019 RMK A01 T00511086  RH  036%=      5-min Rain = 0
KDC1 121653Z 00000KT 05/M09 A3019 RMK A01 T00531085  RH  036%=      5-min Rain = 0
KDC1 121654Z 32000KT 06/M09 A3019 RMK A01 T00551085  RH  036%=      5-min Rain = 0
KDC1 121655Z 30000KT 06/M09 A3019 RMK A01 T00551085  RH  036%=      5-min Rain = 0
KDC1 121656Z 10000KT 05/M09 A3019 RMK A01 T00531085  RH  036%=      5-min Rain = 0
KDC1 121657Z 09000KT 05/M08 A3019 RMK A01 T00541084  RH  036%=      5-min Rain = 0
KDC1 121658Z 07001KT 05/M09 A3019 RMK A01 T00541085  RH  036%=      5-min Rain = 0
KDC1 121659Z 10001KT 06/M08 A3019 RMK A01 T00551084  RH  036%=      5-min Rain = 0
KDC1 121700Z 10000KT 06/M08 A3019 RMK A01 T00551084  RH  036%=      5-min Rain = 0
KDC1 121701Z 18000KT 06/M08 A3019 RMK A01 T00571083  RH  036%=      5-min Rain = 0
KDC1 121702Z 26000KT 06/M08 A3019 RMK A01 T00571084  RH  035%=      5-min Rain = 0
KDC1 121703Z 33001KT 06/M09 A3019 RMK A01 T00561085  RH  036%=      5-min Rain = 0
KDC1 121704Z 32001KT 05/M08 A3019 RMK A01 T00541084  RH  036%=      5-min Rain = 0
KDC1 121705Z 32001KT 05/M08 A3019 RMK A01 T00531083  RH  037%=      5-min Rain = 0
KDC1 121706Z 33001KT 05/M08 A3019 RMK A01 T00531083  RH  037%=      5-min Rain = 0
KDC1 121707Z 32000KT 05/M08 A3019 RMK A01 T00531083  RH  037%=      5-min Rain = 0
KDC1 121708Z 13000KT 06/M08 A3019 RMK A01 T00551081  RH  037%=      5-min Rain = 0
KDC1 121709Z 15001KT 06/M08 A3019 RMK A01 T00571082  RH  036%=      5-min Rain = 0
KDC1 121710Z 17002KT 06/M08 A3019 RMK A01 T00601081  RH  036%=      5-min Rain = 0
KDC1 121711Z 14002KT 06/M08 A3019 RMK A01 T00611081  RH  035%=      5-min Rain = 0
KDC1 121712Z 15001KT 06/M08 A3019 RMK A01 T00611082  RH  035%=      5-min Rain = 0
KDC1 121713Z 14000KT 06/M08 A3019 RMK A01 T00611083  RH  035%=      5-min Rain = 0
KDC1 121714Z 15002KT 06/M08 A3019 RMK A01 T00611082  RH  035%=      5-min Rain = 0
KDC1 121715Z 14001KT 06/M08 A3019 RMK A01 T00631082  RH  035%=      5-min Rain = 0
KDC1 121716Z 13001KT 06/M08 A3019 RMK A01 T00641082  RH  034%=      5-min Rain = 0
KDC1 121717Z 16002KT 06/M08 A3019 RMK A01 T00641082  RH  034%=      5-min Rain = 0
KDC1 121718Z 17002KT 06/M08 A3019 RMK A01 T00641082  RH  034%=      5-min Rain = 0
KDC1 121719Z 16003KT 06/M08 A3019 RMK A01 T00641082  RH  034%=      5-min Rain = 0
KDC1 121720Z 17002KT 06/M08 A3019 RMK A01 T00631082  RH  035%=      5-min Rain = 0
KDC1 121721Z 18004KT 06/M08 A3019 RMK A01 T00631081  RH  035%=      5-min Rain = 0
KDC1 121722Z 20002KT 06/M08 A3019 RMK A01 T00591082  RH  035%=      5-min Rain = 0
KDC1 121723Z 17001KT 06/M08 A3019 RMK A01 T00591080  RH  036%=      5-min Rain = 0
KDC1 121724Z 09002KT 06/M08 A3019 RMK A01 T00611078  RH  036%=      5-min Rain = 0
KDC1 121725Z 12003KT 06/M08 A3019 RMK A01 T00631080  RH  035%=      5-min Rain = 0
KDC1 121726Z 15004KT 06/M08 A3019 RMK A01 T00631079  RH  035%=      5-min Rain = 0
KDC1 121727Z 17002KT 06/M08 A3019 RMK A01 T00631081  RH  035%=      5-min Rain = 0
KDC1 121728Z 16001KT 06/M08 A3018 RMK A01 T00631081  RH  035%=      5-min Rain = 0
KDC1 121729Z 12002KT 06/M08 A3019 RMK A01 T00641079  RH  035%=      5-min Rain = 0
KDC1 121730Z 13002KT 07/M08 A3019 RMK A01 T00671077  RH  035%=      5-min Rain = 0
KDC1 121731Z 14005KT 07/M08 A3019 RMK A01 T00681078  RH  034%=      5-min Rain = 0
KDC1 121732Z 16006KT 07/M08 A3019 RMK A01 T00701078  RH  034%=      5-min Rain = 0
KDC1 121733Z 15004KT 07/M08 A3019 RMK A01 T00691084  RH  033%=      5-min Rain = 0
KDC1 121734Z 13003KT 07/M09 A3019 RMK A01 T00671085  RH  033%=      5-min Rain = 0
KDC1 121735Z 14004KT 07/M08 A3019 RMK A01 T00671082  RH  034%=      5-min Rain = 0
KDC1 121736Z 14004KT 07/M08 A3019 RMK A01 T00681081  RH  034%=      5-min Rain = 0
KDC1 121737Z 11004KT 07/M08 A3019 RMK A01 T00681081  RH  034%=      5-min Rain = 0
KDC1 121738Z 11005KT 07/M08 A3019 RMK A01 T00671081  RH  034%=      5-min Rain = 0
KDC1 121739Z 11007KT 07/M08 A3019 RMK A01 T00671081  RH  034%=      5-min Rain = 0
KDC1 121740Z 09005KT 07/M08 A3019 RMK A01 T00661083  RH  034%=      5-min Rain = 0
KDC1 121741Z 08004KT 06/M08 A3019 RMK A01 T00641084  RH  034%=      5-min Rain = 0
KDC1 121742Z 11003KT 06/M08 A3018 RMK A01 T00641083  RH  034%=      5-min Rain = 0
KDC1 121743Z 12003KT 07/M08 A3018 RMK A01 T00651083  RH  034%=      5-min Rain = 0
KDC1 121744Z 12003KT 07/M08 A3018 RMK A01 T00651083  RH  034%=      5-min Rain = 0
KDC1 121745Z 12002KT 07/M08 A3018 RMK A01 T00661083  RH  034%=      5-min Rain = 0
KDC1 121746Z 13004KT 07/M08 A3018 RMK A01 T00681081  RH  033%=      5-min Rain = 0
KDC1 121747Z 12004KT 07/M08 A3018 RMK A01 T00701082  RH  033%=      5-min Rain = 0
KDC1 121748Z 11006KT 07/M08 A3018 RMK A01 T00711081  RH  033%=      5-min Rain = 0
KDC1 121749Z 13007KT 07/M08 A3018 RMK A01 T00731080  RH  033%=      5-min Rain = 0
KDC1 121750Z 13006KT 07/M08 A3018 RMK A01 T00731081  RH  032%=      5-min Rain = 0
KDC1 121751Z 12006KT 07/M08 A3018 RMK A01 T00741078  RH  033%=      5-min Rain = 0
KDC1 121752Z 13007KT 08/M08 A3018 RMK A01 T00751079  RH  032%=      5-min Rain = 0
KDC1 121753Z 13008KT 08/M08 A3018 RMK A01 T00751081  RH  032%=      5-min Rain = 0
KDC1 121754Z 12008KT 07/M08 A3018 RMK A01 T00731083  RH  032%=      5-min Rain = 0
KDC1 121755Z 11006KT 07/M08 A3017 RMK A01 T00721082  RH  033%=      5-min Rain = 0
KDC1 121756Z 12006KT 07/M08 A3017 RMK A01 T00721081  RH  033%=      5-min Rain = 0
KDC1 121757Z 13005KT 07/M08 A3017 RMK A01 T00741079  RH  033%=      5-min Rain = 0
KDC1 121758Z 13007KT 08/M08 A3017 RMK A01 T00761077  RH  033%=      5-min Rain = 0
KDC1 121759Z 13005KT 08/M08 A3017 RMK A01 T00761079  RH  032%=      5-min Rain = 0
KDC1 121800Z 14005KT 08/M08 A3017 RMK A01 T00751079  RH  033%=      5-min Rain = 0
KDC1 121801Z 13005KT 08/M08 A3017 RMK A01 T00781077  RH  032%=      5-min Rain = 0
KDC1 121802Z 14006KT 08/M08 A3017 RMK A01 T00781080  RH  032%=      5-min Rain = 0
KDC1 121803Z 16006KT 08/M08 A3017 RMK A01 T00771079  RH  032%=      5-min Rain = 0
KDC1 121804Z 16007KT 08/M08 A3017 RMK A01 T00781079  RH  032%=      5-min Rain = 0
KDC1 121805Z 13007KT 08/M08 A3017 RMK A01 T00801078  RH  032%=      5-min Rain = 0
KDC1 121806Z 13008KT 08/M08 A3017 RMK A01 T00831076  RH  032%=      5-min Rain = 0
KDC1 121807Z 12010KT 08/M08 A3017 RMK A01 T00841077  RH  031%=      5-min Rain = 0
KDC1 121808Z 14009KT 08/M08 A3017 RMK A01 T00831078  RH  031%=      5-min Rain = 0
KDC1 121809Z 15007KT 08/M08 A3017 RMK A01 T00831080  RH  031%=      5-min Rain = 0
KDC1 121810Z 12007KT 08/M08 A3016 RMK A01 T00831078  RH  031%=      5-min Rain = 0
KDC1 121811Z 14007KT 08/M08 A3017 RMK A01 T00831079  RH  031%=      5-min Rain = 0
KDC1 121812Z 14010KT 08/M08 A3016 RMK A01 T00831079  RH  031%=      5-min Rain = 0
KDC1 121813Z 14010KT 08/M08 A3016 RMK A01 T00831079  RH  031%=      5-min Rain = 0
KDC1 121814Z 14009KT 08/M08 A3016 RMK A01 T00841079  RH  031%=      5-min Rain = 0
KDC1 121815Z 13007KT 08/M08 A3016 RMK A01 T00841079  RH  031%=      5-min Rain = 0
KDC1 121816Z 14008KT 08/M08 A3016 RMK A01 T00841078  RH  031%=      5-min Rain = 0
KDC1 121817Z 15009KT 08/M08 A3016 RMK A01 T00841077  RH  031%=      5-min Rain = 0
KDC1 121818Z 15009KT 09/M08 A3016 RMK A01 T00871077  RH  031%=      5-min Rain = 0
KDC1 121819Z 14009KT 09/M08 A3016 RMK A01 T00881079  RH  030%=      5-min Rain = 0
KDC1 121820Z 13008KT 09/M08 A3016 RMK A01 T00861080  RH  030%=      5-min Rain = 0
KDC1 121821Z 13007KT 09/M08 A3016 RMK A01 T00861079  RH  030%=      5-min Rain = 0
KDC1 121822Z 15009KT 09/M08 A3016 RMK A01 T00861078  RH  031%=      5-min Rain = 0
KDC1 121823Z 15006KT 09/M08 A3016 RMK A01 T00871078  RH  030%=      5-min Rain = 0
KDC1 121824Z 16006KT 09/M08 A3016 RMK A01 T00871079  RH  030%=      5-min Rain = 0
KDC1 121825Z 15008KT 09/M08 A3015 RMK A01 T00881078  RH  030%=      5-min Rain = 0
KDC1 121826Z 14009KT 09/M08 A3015 RMK A01 T00901077  RH  030%=      5-min Rain = 0
KDC1 121827Z 12009KT 09/M08 A3015 RMK A01 T00901077  RH  030%=      5-min Rain = 0
KDC1 121828Z 12010KT 09/M08 A3015 RMK A01 T00901078  RH  030%=      5-min Rain = 0
KDC1 121829Z 14007KT 09/M08 A3015 RMK A01 T00891079  RH  030%=      5-min Rain = 0
KDC1 121830Z 14005KT 09/M08 A3015 RMK A01 T00871080  RH  030%=      5-min Rain = 0
KDC1 121831Z 14006KT 09/M08 A3015 RMK A01 T00891076  RH  030%=      5-min Rain = 0
KDC1 121832Z 15007KT 09/M08 A3015 RMK A01 T00911077  RH  030%=      5-min Rain = 0
KDC1 121833Z 12009KT 09/M08 A3015 RMK A01 T00911078  RH  030%=      5-min Rain = 0
KDC1 121834Z 12009G16KT 09/M08 A3015 RMK A01 T00911076  RH  030%=      5-min Rain = 0
KDC1 121835Z 12008KT 09/M08 A3015 RMK A01 T00921078  RH  029%=      5-min Rain = 0
KDC1 121836Z 13007KT 09/M08 A3015 RMK A01 T00921077  RH  030%=      5-min Rain = 0
KDC1 121837Z 12007KT 09/M08 A3015 RMK A01 T00931076  RH  030%=      5-min Rain = 0
KDC1 121838Z 13006KT 09/M08 A3015 RMK A01 T00941078  RH  029%=      5-min Rain = 0
KDC1 121839Z 13009KT 09/M08 A3015 RMK A01 T00941076  RH  029%=      5-min Rain = 0
KDC1 121840Z 12006KT 09/M08 A3015 RMK A01 T00941078  RH  029%=      5-min Rain = 0
KDC1 121841Z 15005KT 09/M08 A3015 RMK A01 T00941079  RH  029%=      5-min Rain = 0
KDC1 121842Z 12008KT 10/M08 A3015 RMK A01 T00951076  RH  029%=      5-min Rain = 0
KDC1 121843Z 11007KT 10/M08 A3015 RMK A01 T00961077  RH  029%=      5-min Rain = 0
KDC1 121844Z 10007KT 10/M08 A3014 RMK A01 T00961078  RH  028%=      5-min Rain = 0
KDC1 121845Z 11008KT 10/M08 A3014 RMK A01 T00951079  RH  029%=      5-min Rain = 0
KDC1 121846Z 11007KT 10/M08 A3014 RMK A01 T00951077  RH  029%=      5-min Rain = 0
KDC1 121847Z 14006KT 09/M08 A3014 RMK A01 T00941078  RH  029%=      5-min Rain = 0
KDC1 121848Z 13006KT 09/M08 A3014 RMK A01 T00931078  RH  029%=      5-min Rain = 0
KDC1 121849Z 13007KT 09/M08 A3014 RMK A01 T00931077  RH  029%=      5-min Rain = 0
KDC1 121850Z 13006KT 10/M08 A3014 RMK A01 T00951076  RH  029%=      5-min Rain = 0
KDC1 121851Z 12006KT 10/M08 A3014 RMK A01 T00961076  RH  029%=      5-min Rain = 0
KDC1 121852Z 12009KT 10/M08 A3014 RMK A01 T00971075  RH  029%=      5-min Rain = 0
KDC1 121853Z 12008KT 10/M08 A3014 RMK A01 T00991075  RH  029%=      5-min Rain = 0
KDC1 121854Z 13007KT 10/M08 A3014 RMK A01 T01001075  RH  028%=      5-min Rain = 0
KDC1 121855Z 12005KT 10/M08 A3014 RMK A01 T00991076  RH  028%=      5-min Rain = 0
KDC1 121856Z 12008KT 10/M08 A3013 RMK A01 T00991075  RH  028%=      5-min Rain = 0
KDC1 121857Z 12009KT 10/M07 A3013 RMK A01 T01021070  RH  029%=      5-min Rain = 0
KDC1 121858Z 12008KT 11/M07 A3013 RMK A01 T01051074  RH  028%=      5-min Rain = 0
KDC1 121859Z 12008KT 10/M07 A3013 RMK A01 T01041074  RH  028%=      5-min Rain = 0
KDC1 121900Z 14008KT 11/M07 A3013 RMK A01 T01051071  RH  028%=      5-min Rain = 0
KDC1 121901Z 15009KT 11/M07 A3013 RMK A01 T01071073  RH  028%=      5-min Rain = 0
KDC1 121902Z 14005KT 11/M08 A3013 RMK A01 T01061075  RH  027%=      5-min Rain = 0
KDC1 121903Z 11007KT 11/M08 A3013 RMK A01 T01051075  RH  028%=      5-min Rain = 0
KDC1 121904Z 10006KT 10/M08 A3013 RMK A01 T01021076  RH  028%=      5-min Rain = 0
KDC1 121905Z 09006KT 10/M08 A3013 RMK A01 T01011076  RH  028%=      5-min Rain = 0
KDC1 121906Z 09006KT 10/M08 A3013 RMK A01 T01021075  RH  028%=      5-min Rain = 0
KDC1 121907Z 10005KT 10/M08 A3013 RMK A01 T01021076  RH  028%=      5-min Rain = 0
KDC1 121908Z 12007KT 10/M08 A3013 RMK A01 T01011075  RH  028%=      5-min Rain = 0
KDC1 121909Z 11007KT 10/M07 A3013 RMK A01 T01021074  RH  028%=      5-min Rain = 0
KDC1 121910Z 12005KT 11/M07 A3013 RMK A01 T01051073  RH  028%=      5-min Rain = 0
KDC1 121911Z 14008KT 11/M07 A3012 RMK A01 T01071071  RH  028%=      5-min Rain = 0
KDC1 121912Z 14006KT 11/M07 A3012 RMK A01 T01101071  RH  027%=      5-min Rain = 0
KDC1 121913Z 13005KT 11/M07 A3012 RMK A01 T01111072  RH  027%=      5-min Rain = 0
KDC1 121914Z 11006KT 11/M07 A3012 RMK A01 T01111073  RH  027%=      5-min Rain = 0
KDC1 121915Z 11010KT 11/M07 A3012 RMK A01 T01121071  RH  027%=      5-min Rain = 0
KDC1 121916Z 12008KT 11/M07 A3012 RMK A01 T01121072  RH  027%=      5-min Rain = 0
KDC1 121917Z 11008KT 11/M07 A3012 RMK A01 T01101073  RH  027%=      5-min Rain = 0
KDC1 121918Z 12006KT 11/M07 A3012 RMK A01 T01081073  RH  027%=      5-min Rain = 0
KDC1 121919Z 12005KT 11/M07 A3012 RMK A01 T01091073  RH  027%=      5-min Rain = 0
KDC1 121920Z 10006KT 11/M07 A3012 RMK A01 T01101074  RH  027%=      5-min Rain = 0
KDC1 121921Z 11007KT 11/M07 A3011 RMK A01 T01111071  RH  027%=      5-min Rain = 0
KDC1 121922Z 11005KT 11/M07 A3011 RMK A01 T01121073  RH  027%=      5-min Rain = 0
KDC1 121923Z 09007KT 11/M07 A3011 RMK A01 T01101073  RH  027%=      5-min Rain = 0
KDC1 121924Z 12009KT 11/M07 A3011 RMK A01 T01131072  RH  027%=      5-min Rain = 0
KDC1 121925Z 12007KT 11/M07 A3011 RMK A01 T01121074  RH  026%=      5-min Rain = 0
KDC1 121926Z 15003KT 11/M07 A3011 RMK A01 T01101074  RH  027%=      5-min Rain = 0
KDC1 121927Z 11004KT 11/M07 A3011 RMK A01 T01101073  RH  027%=      5-min Rain = 0
KDC1 121928Z 10005KT 11/M07 A3011 RMK A01 T01121072  RH  027%=      5-min Rain = 0
KDC1 121929Z 10007KT 11/M07 A3011 RMK A01 T01121073  RH  026%=      5-min Rain = 0
KDC1 121930Z 11006KT 11/M07 A3011 RMK A01 T01121073  RH  027%=      5-min Rain = 0
KDC1 121931Z 11006KT 11/M07 A3011 RMK A01 T01131071  RH  027%=      5-min Rain = 0
KDC1 121932Z 11008KT 12/M07 A3011 RMK A01 T01151070  RH  027%=      5-min Rain = 0
KDC1 121933Z 12007KT 12/M07 A301 RMK A01 T01181069  RH  027%=      5-min Rain = 0
KDC1 121934Z 14008KT 12/M07 A301 RMK A01 T01201068  RH  026%=      5-min Rain = 0
KDC1 121935Z 13008KT 12/M07 A301 RMK A01 T01221068  RH  026%=      5-min Rain = 0
KDC1 121936Z 14011KT 12/M07 A301 RMK A01 T01231065  RH  026%=      5-min Rain = 0
KDC1 121937Z 13010KT 13/M07 A301 RMK A01 T01251065  RH  026%=      5-min Rain = 0
KDC1 121938Z 14007KT 13/M07 A301 RMK A01 T01261067  RH  025%=      5-min Rain = 0
KDC1 121939Z 15009KT 13/M07 A301 RMK A01 T01251068  RH  025%=      5-min Rain = 0
KDC1 121940Z 14008KT 13/M07 A301 RMK A01 T01261067  RH  025%=      5-min Rain = 0
KDC1 121941Z 12009KT 13/M07 A301 RMK A01 T01291065  RH  025%=      5-min Rain = 0
KDC1 121942Z 11012KT 13/M07 A301 RMK A01 T01301065  RH  025%=      5-min Rain = 0
KDC1 121943Z 12010KT 13/M07 A3009 RMK A01 T01311065  RH  025%=      5-min Rain = 0
KDC1 121944Z 12009KT 13/M07 A3009 RMK A01 T01291066  RH  025%=      5-min Rain = 0
KDC1 121945Z 12010G15KT 13/M06 A3009 RMK A01 T01291064  RH  026%=      5-min Rain = 0
KDC1 121946Z 14013KT 13/M06 A3009 RMK A01 T01291058  RH  027%=      5-min Rain = 0
KDC1 121947Z 14011KT 13/M06 A3009 RMK A01 T01301059  RH  026%=      5-min Rain = 0
KDC1 121948Z 14008KT 13/M06 A3009 RMK A01 T01291060  RH  026%=      5-min Rain = 0
KDC1 121949Z 16008KT 13/M06 A3009 RMK A01 T01271061  RH  026%=      5-min Rain = 0
KDC1 121950Z 16010KT 13/M06 A3009 RMK A01 T01281057  RH  027%=      5-min Rain = 0
KDC1 121951Z 15009KT 13/M06 A3009 RMK A01 T01311057  RH  027%=      5-min Rain = 0
KDC1 121952Z 15009KT 13/M06 A3009 RMK A01 T01301056  RH  027%=      5-min Rain = 0
KDC1 121953Z 16008KT 13/M06 A3009 RMK A01 T01321056  RH  027%=      5-min Rain = 0
KDC1 121954Z 15009KT 13/M06 A3009 RMK A01 T01311058  RH  026%=      5-min Rain = 0
KDC1 121955Z 15010KT 13/M06 A3008 RMK A01 T01301057  RH  027%=      5-min Rain = 0
KDC1 121956Z 15011KT 13/M06 A3008 RMK A01 T01301056  RH  027%=      5-min Rain = 0
KDC1 121957Z 15011KT 13/M06 A3008 RMK A01 T01311057  RH  026%=      5-min Rain = 0
KDC1 121958Z 14010KT 13/M06 A3008 RMK A01 T01311056  RH  027%=      5-min Rain = 0
KDC1 121959Z 14011KT 13/M06 A3008 RMK A01 T01311056  RH  027%=      5-min Rain = 0
KDC1 122000Z 12010KT 13/M06 A3008 RMK A01 T01311056  RH  027%=      5-min Rain = 0
KDC1 122001Z 12010KT 13/M06 A3008 RMK A01 T01311056  RH  027%=      5-min Rain = 0
KDC1 122002Z 13009KT 13/M05 A3008 RMK A01 T01341054  RH  027%=      5-min Rain = 0
KDC1 122003Z 14010KT 13/M06 A3008 RMK A01 T01331055  RH  027%=      5-min Rain = 0
KDC1 122004Z 13009KT 13/M06 A3008 RMK A01 T01341055  RH  026%=      5-min Rain = 0
KDC1 122005Z 12009KT 13/M06 A3008 RMK A01 T01321057  RH  026%=      5-min Rain = 0
KDC1 122006Z 12008KT 13/M06 A3008 RMK A01 T01321057  RH  026%=      5-min Rain = 0
KDC1 122007Z 12009KT 13/M06 A3008 RMK A01 T01331056  RH  026%=      5-min Rain = 0
KDC1 122008Z 13011KT 14/M05 A3008 RMK A01 T01361053  RH  026%=      5-min Rain = 0
KDC1 122009Z 13012KT 14/M05 A3008 RMK A01 T01371051  RH  027%=      5-min Rain = 0
KDC1 122010Z 12011KT 14/M05 A3008 RMK A01 T01371054  RH  026%=      5-min Rain = 0
KDC1 122011Z 12010KT 14/M06 A3008 RMK A01 T01351055  RH  026%=      5-min Rain = 0
KDC1 122012Z 12009KT 13/M06 A3008 RMK A01 T01331057  RH  026%=      5-min Rain = 0
KDC1 122013Z 12007KT 13/M06 A3008 RMK A01 T01301058  RH  027%=      5-min Rain = 0
KDC1 122014Z 13008KT 13/M06 A3008 RMK A01 T01301057  RH  027%=      5-min Rain = 0
KDC1 122015Z 14010KT 13/M06 A3008 RMK A01 T01311057  RH  027%=      5-min Rain = 0
KDC1 122016Z 14007KT 13/M06 A3008 RMK A01 T01311056  RH  027%=      5-min Rain = 0
KDC1 122017Z 16007KT 13/M06 A3007 RMK A01 T01311057  RH  027%=      5-min Rain = 0
KDC1 122018Z 13006G11KT 13/M06 A3007 RMK A01 T01321058  RH  026%=      5-min Rain = 0
KDC1 122019Z 15010KT 13/M06 A3007 RMK A01 T01331055  RH  027%=      5-min Rain = 0
KDC1 122020Z 16006KT 14/M06 A3007 RMK A01 T01351056  RH  026%=      5-min Rain = 0
KDC1 122021Z 16007KT 14/M06 A3007 RMK A01 T01361057  RH  026%=      5-min Rain = 0
KDC1 122022Z 15011KT 14/M06 A3007 RMK A01 T01361056  RH  026%=      5-min Rain = 0
KDC1 122023Z 15009KT 14/M05 A3007 RMK A01 T01371054  RH  026%=      5-min Rain = 0
KDC1 122024Z 16007KT 14/M06 A3007 RMK A01 T01381055  RH  026%=      5-min Rain = 0
KDC1 122025Z 14007KT 14/M05 A3007 RMK A01 T01401054  RH  026%=      5-min Rain = 0
KDC1 122026Z 13010KT 14/M05 A3007 RMK A01 T01421052  RH  026%=      5-min Rain = 0
KDC1 122027Z 14009KT 14/M06 A3007 RMK A01 T01411056  RH  025%=      5-min Rain = 0
KDC1 122028Z 14007KT 14/M06 A3007 RMK A01 T01381059  RH  025%=      5-min Rain = 0
KDC1 122029Z 12008KT 14/M06 A3007 RMK A01 T01371057  RH  026%=      5-min Rain = 0
KDC1 122030Z 12007KT 14/M06 A3007 RMK A01 T01351059  RH  026%=      5-min Rain = 0
KDC1 122031Z 14009KT 13/M06 A3007 RMK A01 T01341057  RH  026%=      5-min Rain = 0
KDC1 122032Z 12009KT 14/M05 A3006 RMK A01 T01391052  RH  026%=      5-min Rain = 0
KDC1 122033Z 12011KT 14/M05 A3006 RMK A01 T01421053  RH  026%=      5-min Rain = 0
KDC1 122034Z 12009KT 14/M06 A3006 RMK A01 T01411055  RH  025%=      5-min Rain = 0
KDC1 122035Z 12007KT 14/M06 A3006 RMK A01 T01391057  RH  025%=      5-min Rain = 0
KDC1 122036Z 12006KT 14/M06 A3006 RMK A01 T01381056  RH  025%=      5-min Rain = 0
KDC1 122037Z 12007KT 14/M06 A3006 RMK A01 T01381056  RH  025%=      5-min Rain = 0
KDC1 122038Z 12007KT 14/M06 A3006 RMK A01 T01381057  RH  025%=      5-min Rain = 0
KDC1 122039Z 12006KT 14/M06 A3006 RMK A01 T01371059  RH  025%=      5-min Rain = 0
KDC1 122040Z 13007KT 14/M06 A3006 RMK A01 T01361058  RH  025%=      5-min Rain = 0
KDC1 122041Z 14007KT 14/M06 A3006 RMK A01 T01371056  RH  026%=      5-min Rain = 0
KDC1 122042Z 14007KT 14/M06 A3006 RMK A01 T01401056  RH  025%=      5-min Rain = 0
KDC1 122043Z 13008KT 14/M06 A3006 RMK A01 T01411057  RH  025%=      5-min Rain = 0
KDC1 122044Z 14008KT 14/M06 A3006 RMK A01 T01401057  RH  025%=      5-min Rain = 0
KDC1 122045Z 15013KT 14/M05 A3005 RMK A01 T01411053  RH  026%=      5-min Rain = 0
KDC1 122046Z 14013KT 14/M05 A3005 RMK A01 T01431054  RH  025%=      5-min Rain = 0
KDC1 122047Z 14010KT 14/M06 A3005 RMK A01 T01431057  RH  025%=      5-min Rain = 0
KDC1 122048Z 14008KT 14/M06 A3005 RMK A01 T01421058  RH  025%=      5-min Rain = 0
KDC1 122049Z 13007KT 14/M06 A3005 RMK A01 T01421058  RH  025%=      5-min Rain = 0
KDC1 122050Z 13009KT 14/M06 A3005 RMK A01 T01411059  RH  024%=      5-min Rain = 0
KDC1 122051Z 14007KT 14/M06 A3005 RMK A01 T01421059  RH  024%=      5-min Rain = 0
KDC1 122052Z 14006KT 14/M06 A3005 RMK A01 T01431060  RH  024%=      5-min Rain = 0
KDC1 122053Z 13009KT 14/M06 A3005 RMK A01 T01431059  RH  024%=      5-min Rain = 0
KDC1 122054Z 11010KT 14/M06 A3005 RMK A01 T01441060  RH  024%=      5-min Rain = 0
KDC1 122055Z 11009KT 15/M06 A3005 RMK A01 T01461061  RH  023%=      5-min Rain = 0
KDC1 122056Z 12010KT 15/M06 A3005 RMK A01 T01461060  RH  024%=      5-min Rain = 0
KDC1 122057Z 13011KT 15/M06 A3005 RMK A01 T01461059  RH  024%=      5-min Rain = 0
KDC1 122058Z 12010KT 15/M06 A3005 RMK A01 T01471061  RH  023%=      5-min Rain = 0
KDC1 122059Z 11009KT 15/M06 A3005 RMK A01 T01451061  RH  024%=      5-min Rain = 0
KDC1 122100Z 13009KT 14/M06 A3005 RMK A01 T01441062  RH  023%=      5-min Rain = 0
KDC1 122101Z 13006KT 14/M06 A3005 RMK A01 T01441063  RH  023%=      5-min Rain = 0
KDC1 122102Z 14007KT 15/M06 A3005 RMK A01 T01451062  RH  023%=      5-min Rain = 0
KDC1 122103Z 13006KT 15/M06 A3005 RMK A01 T01451063  RH  023%=      5-min Rain = 0
KDC1 122104Z 12007KT 15/M06 A3005 RMK A01 T01451062  RH  023%=      5-min Rain = 0
KDC1 122105Z 12008KT 15/M06 A3005 RMK A01 T01451064  RH  023%=      5-min Rain = 0
KDC1 122106Z 12006KT 14/M06 A3005 RMK A01 T01441064  RH  023%=      5-min Rain = 0
KDC1 122107Z 12010KT 15/M06 A3005 RMK A01 T01451062  RH  023%=      5-min Rain = 0
KDC1 122108Z 13010KT 15/M06 A3005 RMK A01 T01471062  RH  023%=      5-min Rain = 0
KDC1 122109Z 14008KT 15/M06 A3004 RMK A01 T01471062  RH  023%=      5-min Rain = 0
KDC1 122110Z 15007KT 15/M06 A3004 RMK A01 T01471062  RH  023%=      5-min Rain = 0
KDC1 122111Z 12008KT 15/M06 A3004 RMK A01 T01481062  RH  023%=      5-min Rain = 0
KDC1 122112Z 11006KT 15/M06 A3004 RMK A01 T01491062  RH  023%=      5-min Rain = 0
KDC1 122113Z 12011KT 15/M06 A3004 RMK A01 T01491062  RH  023%=      5-min Rain = 0
KDC1 122114Z 11012KT 15/M06 A3004 RMK A01 T01521057  RH  023%=      5-min Rain = 0
KDC1 122115Z 12012KT 15/M06 A3004 RMK A01 T01541057  RH  023%=      5-min Rain = 0
KDC1 122116Z 12010KT 15/M06 A3004 RMK A01 T01541057  RH  023%=      5-min Rain = 0
KDC1 122117Z 12008KT 15/M06 A3004 RMK A01 T01541059  RH  023%=      5-min Rain = 0
KDC1 122118Z 12011KT 15/M06 A3004 RMK A01 T01541058  RH  023%=      5-min Rain = 0
KDC1 122119Z 12012KT 15/M06 A3004 RMK A01 T01541057  RH  023%=      5-min Rain = 0
KDC1 122120Z 13011KT 15/M06 A3004 RMK A01 T01541057  RH  023%=      5-min Rain = 0
KDC1 122121Z 12008KT 15/M06 A3004 RMK A01 T01531058  RH  023%=      5-min Rain = 0
KDC1 122122Z 14008KT 15/M06 A3004 RMK A01 T01531056  RH  023%=      5-min Rain = 0
KDC1 122123Z 14011KT 16/M05 A3004 RMK A01 T01551054  RH  023%=      5-min Rain = 0
KDC1 122124Z 14014KT 16/M05 A3004 RMK A01 T01571054  RH  023%=      5-min Rain = 0
KDC1 122125Z 13014KT 16/M05 A3004 RMK A01 T01571054  RH  023%=      5-min Rain = 0
KDC1 122126Z 13011KT 16/M05 A3004 RMK A01 T01591054  RH  023%=      5-min Rain = 0
KDC1 122127Z 12011KT 16/M06 A3004 RMK A01 T01601055  RH  022%=      5-min Rain = 0
KDC1 122128Z 13008KT 16/M06 A3004 RMK A01 T01581057  RH  022%=      5-min Rain = 0
KDC1 122129Z 14009KT 16/M06 A3004 RMK A01 T01571057  RH  023%=      5-min Rain = 0
KDC1 122130Z 14010KT 16/M05 A3004 RMK A01 T01571054  RH  023%=      5-min Rain = 0
KDC1 122131Z 13009KT 16/M06 A3004 RMK A01 T01571056  RH  023%=      5-min Rain = 0
KDC1 122132Z 13011KT 16/M05 A3004 RMK A01 T01581054  RH  023%=      5-min Rain = 0
KDC1 122133Z 13011KT 16/M05 A3004 RMK A01 T01601052  RH  023%=      5-min Rain = 0
KDC1 122134Z 13013KT 16/M05 A3004 RMK A01 T01631052  RH  023%=      5-min Rain = 0
KDC1 122135Z 14010KT 16/M06 A3004 RMK A01 T01611057  RH  022%=      5-min Rain = 0
KDC1 122136Z 14010KT 16/M06 A3003 RMK A01 T01601057  RH  022%=      5-min Rain = 0
KDC1 122137Z 12012KT 16/M06 A3003 RMK A01 T01591057  RH  022%=      5-min Rain = 0
KDC1 122138Z 12012KT 16/M06 A3004 RMK A01 T01591058  RH  022%=      5-min Rain = 0
KDC1 122139Z 13013KT 16/M06 A3003 RMK A01 T01591058  RH  022%=      5-min Rain = 0
KDC1 122140Z 13009KT 16/M06 A3003 RMK A01 T01581059  RH  022%=      5-min Rain = 0
KDC1 122141Z 13008KT 16/M06 A3003 RMK A01 T01571059  RH  022%=      5-min Rain = 0
KDC1 122142Z 13007KT 16/M06 A3003 RMK A01 T01571058  RH  022%=      5-min Rain = 0
KDC1 122143Z 13013KT 16/M06 A3003 RMK A01 T01591055  RH  023%=      5-min Rain = 0
KDC1 122144Z 12013KT 16/M06 A3003 RMK A01 T01611055  RH  022%=      5-min Rain = 0
KDC1 122145Z 13012KT 16/M06 A3003 RMK A01 T01601056  RH  022%=      5-min Rain = 0
KDC1 122146Z 13010KT 16/M06 A3003 RMK A01 T01611056  RH  022%=      5-min Rain = 0
KDC1 122147Z 11011KT 16/M05 A3004 RMK A01 T01611054  RH  022%=      5-min Rain = 0
KDC1 122148Z 11013KT 16/M06 A3004 RMK A01 T01621057  RH  022%=      5-min Rain = 0
KDC1 122149Z 12011KT 16/M06 A3004 RMK A01 T01611058  RH  022%=      5-min Rain = 0
KDC1 122150Z 11011KT 16/M06 A3004 RMK A01 T01611056  RH  022%=      5-min Rain = 0
KDC1 122151Z 11012KT 16/M06 A3004 RMK A01 T01601059  RH  022%=      5-min Rain = 0
KDC1 122152Z 13013KT 16/M06 A3003 RMK A01 T01601055  RH  022%=      5-min Rain = 0
KDC1 122153Z 14012KT 16/M06 A3003 RMK A01 T01621056  RH  022%=      5-min Rain = 0
KDC1 122154Z 14012KT 16/M06 A3003 RMK A01 T01621056  RH  022%=      5-min Rain = 0
KDC1 122155Z 14008KT 16/M06 A3003 RMK A01 T01611058  RH  022%=      5-min Rain = 0
KDC1 122156Z 13011KT 16/M06 A3004 RMK A01 T01611058  RH  022%=      5-min Rain = 0
KDC1 122157Z 13013KT 16/M06 A3003 RMK A01 T01611057  RH  022%=      5-min Rain = 0
KDC1 122158Z 14013KT 16/M06 A3003 RMK A01 T01611057  RH  022%=      5-min Rain = 0
KDC1 122159Z 14011KT 16/M06 A3003 RMK A01 T01611057  RH  022%=      5-min Rain = 0
KDC1 122200Z 13011KT 16/M06 A3003 RMK A01 T01621055  RH  022%=      5-min Rain = 0
KDC1 122201Z 14011KT 16/M06 A3003 RMK A01 T01621055  RH  022%=      5-min Rain = 0
KDC1 122202Z 13011KT 16/M06 A3003 RMK A01 T01621058  RH  022%=      5-min Rain = 0
KDC1 122203Z 12014KT 16/M06 A3003 RMK A01 T01621056  RH  022%=      5-min Rain = 0
KDC1 122204Z 11011KT 16/M06 A3003 RMK A01 T01621059  RH  022%=      5-min Rain = 0
KDC1 122205Z 11012KT 16/M06 A3003 RMK A01 T01611059  RH  022%=      5-min Rain = 0
KDC1 122206Z 13013KT 16/M06 A3003 RMK A01 T01621056  RH  022%=      5-min Rain = 0
KDC1 122207Z 13010KT 16/M06 A3003 RMK A01 T01621056  RH  022%=      5-min Rain = 0
KDC1 122208Z 12010KT 16/M06 A3003 RMK A01 T01621057  RH  022%=      5-min Rain = 0
KDC1 122209Z 12010KT 16/M06 A3003 RMK A01 T01621058  RH  022%=      5-min Rain = 0
KDC1 122210Z 13013KT 16/M06 A3003 RMK A01 T01621056  RH  022%=      5-min Rain = 0
KDC1 122211Z 14010KT 16/M06 A3003 RMK A01 T01621056  RH  022%=      5-min Rain = 0
KDC1 122212Z 13012KT 16/M06 A3003 RMK A01 T01621057  RH  022%=      5-min Rain = 0
KDC1 122213Z 13013KT 16/M05 A3003 RMK A01 T01621054  RH  022%=      5-min Rain = 0
KDC1 122214Z 12013KT 16/M05 A3003 RMK A01 T01631052  RH  022%=      5-min Rain = 0
KDC1 122215Z 13014KT 17/M05 A3003 RMK A01 T01651053  RH  022%=      5-min Rain = 0
KDC1 122216Z 12015KT 16/M06 A3003 RMK A01 T01641055  RH  022%=      5-min Rain = 0
KDC1 122217Z 12013KT 16/M06 A3003 RMK A01 T01631056  RH  022%=      5-min Rain = 0
KDC1 122218Z 11013KT 16/M06 A3003 RMK A01 T01611057  RH  022%=      5-min Rain = 0
KDC1 122219Z 12012KT 16/M06 A3003 RMK A01 T01611057  RH  022%=      5-min Rain = 0
KDC1 122220Z 13010KT 16/M06 A3002 RMK A01 T01621056  RH  022%=      5-min Rain = 0
KDC1 122221Z 13011KT 16/M05 A3002 RMK A01 T01641052  RH  022%=      5-min Rain = 0
KDC1 122222Z 12011KT 17/M05 A3002 RMK A01 T01651053  RH  022%=      5-min Rain = 0
KDC1 122223Z 12010KT 17/M06 A3002 RMK A01 T01651056  RH  021%=      5-min Rain = 0
KDC1 122224Z 12013KT 17/M06 A3002 RMK A01 T01651055  RH  022%=      5-min Rain = 0
KDC1 122225Z 12014KT 16/M06 A3002 RMK A01 T01641057  RH  021%=      5-min Rain = 0
KDC1 122226Z 13014KT 16/M06 A3002 RMK A01 T01631056  RH  022%=      5-min Rain = 0
KDC1 122227Z 12010KT 16/M06 A3002 RMK A01 T01631057  RH  022%=      5-min Rain = 0
KDC1 122228Z 11011KT 16/M06 A3002 RMK A01 T01631055  RH  022%=      5-min Rain = 0
KDC1 122229Z 12013KT 16/M05 A3002 RMK A01 T01631054  RH  022%=      5-min Rain = 0
KDC1 122230Z 13015KT 16/M05 A3002 RMK A01 T01641053  RH  022%=      5-min Rain = 0
KDC1 122231Z 12013KT 16/M05 A3002 RMK A01 T01631054  RH  022%=      5-min Rain = 0
KDC1 122232Z 12012KT 16/M05 A3002 RMK A01 T01631053  RH  022%=      5-min Rain = 0
KDC1 122233Z 13014KT 16/M05 A3002 RMK A01 T01641051  RH  022%=      5-min Rain = 0
KDC1 122234Z 12012KT 16/M05 A3002 RMK A01 T01641053  RH  022%=      5-min Rain = 0
KDC1 122235Z 13011KT 17/M05 A3002 RMK A01 T01651052  RH  022%=      5-min Rain = 0
KDC1 122236Z 13012KT 17/M05 A3002 RMK A01 T01671049  RH  022%=      5-min Rain = 0
KDC1 122237Z 13012KT 17/M05 A3002 RMK A01 T01681052  RH  022%=      5-min Rain = 0
KDC1 122238Z 13014KT 17/M05 A3002 RMK A01 T01671050  RH  022%=      5-min Rain = 0
KDC1 122239Z 13013KT 17/M05 A3002 RMK A01 T01661050  RH  022%=      5-min Rain = 0
KDC1 122240Z 13015KT 17/M05 A3002 RMK A01 T01661051  RH  022%=      5-min Rain = 0
KDC1 122241Z 13014KT 17/M05 A3002 RMK A01 T01651053  RH  022%=      5-min Rain = 0
KDC1 122242Z 13016KT 17/M05 A3002 RMK A01 T01651051  RH  022%=      5-min Rain = 0
KDC1 122243Z 14016KT 17/M05 A3002 RMK A01 T01651051  RH  022%=      5-min Rain = 0
KDC1 122244Z 13017KT 17/M05 A3002 RMK A01 T01651051  RH  022%=      5-min Rain = 0
KDC1 122245Z 14014KT 16/M05 A3002 RMK A01 T01641052  RH  022%=      5-min Rain = 0
KDC1 122246Z 13016KT 16/M05 A3002 RMK A01 T01641054  RH  022%=      5-min Rain = 0
KDC1 122247Z 13016KT 16/M05 A3002 RMK A01 T01631052  RH  022%=      5-min Rain = 0
KDC1 122248Z 13015KT 16/M05 A3002 RMK A01 T01631051  RH  023%=      5-min Rain = 0
KDC1 122249Z 12013KT 16/M05 A3002 RMK A01 T01641050  RH  023%=      5-min Rain = 0
KDC1 122250Z 12012KT 17/M05 A3002 RMK A01 T01651051  RH  022%=      5-min Rain = 0
KDC1 122251Z 12012KT 17/M05 A3002 RMK A01 T01651052  RH  022%=      5-min Rain = 0
KDC1 122252Z 12014KT 17/M05 A3002 RMK A01 T01671050  RH  022%=      5-min Rain = 0
KDC1 122253Z 13016KT 17/M05 A3002 RMK A01 T01671050  RH  022%=      5-min Rain = 0
KDC1 122254Z 13015KT 17/M05 A3002 RMK A01 T01671051  RH  022%=      5-min Rain = 0
KDC1 122255Z 12013KT 17/M05 A3002 RMK A01 T01661050  RH  022%=      5-min Rain = 0
KDC1 122256Z 13014KT 17/M05 A3002 RMK A01 T01661050  RH  022%=      5-min Rain = 0
KDC1 122257Z 13012KT 17/M05 A3002 RMK A01 T01661049  RH  023%=      5-min Rain = 0
KDC1 122258Z 14012KT 17/M05 A3002 RMK A01 T01661045  RH  023%=      5-min Rain = 0
KDC1 122259Z 13014KT 17/M05 A3002 RMK A01 T01671048  RH  023%=      5-min Rain = 0
KDC1 122300Z 12016KT 17/M05 A3002 RMK A01 T01671050  RH  022%=      5-min Rain = 0
KDC1 122301Z 12014KT 17/M05 A3002 RMK A01 T01661051  RH  022%=      5-min Rain = 0
KDC1 122302Z 12015KT 17/M05 A3002 RMK A01 T01661050  RH  022%=      5-min Rain = 0
KDC1 122303Z 14016KT 17/M05 A3002 RMK A01 T01661049  RH  022%=      5-min Rain = 0
KDC1 122304Z 13018KT 17/M05 A3002 RMK A01 T01661049  RH  022%=      5-min Rain = 0
KDC1 122305Z 12016KT 17/M05 A3002 RMK A01 T01651050  RH  022%=      5-min Rain = 0
KDC1 122306Z 13018KT 17/M05 A3002 RMK A01 T01651051  RH  022%=      5-min Rain = 0
KDC1 122307Z 13015KT 17/M05 A3002 RMK A01 T01651051  RH  022%=      5-min Rain = 0
KDC1 122308Z 13014KT 16/M05 A3002 RMK A01 T01641051  RH  022%=      5-min Rain = 0
KDC1 122309Z 12014KT 16/M05 A3002 RMK A01 T01641051  RH  022%=      5-min Rain = 0
KDC1 122310Z 12015KT 17/M05 A3002 RMK A01 T01651049  RH  023%=      5-min Rain = 0
KDC1 122311Z 12015KT 17/M05 A3002 RMK A01 T01651051  RH  022%=      5-min Rain = 0
KDC1 122312Z 13016KT 17/M05 A3002 RMK A01 T01651051  RH  022%=      5-min Rain = 0
KDC1 122313Z 13016KT 17/M05 A3002 RMK A01 T01651049  RH  023%=      5-min Rain = 0
KDC1 122314Z 13015KT 17/M05 A3002 RMK A01 T01651049  RH  023%=      5-min Rain = 0
KDC1 122315Z 13016KT 16/M05 A3002 RMK A01 T01641049  RH  023%=      5-min Rain = 0
KDC1 122316Z 13014KT 16/M05 A3002 RMK A01 T01641050  RH  023%=      5-min Rain = 0
KDC1 122317Z 13013KT 16/M05 A3002 RMK A01 T01641051  RH  023%=      5-min Rain = 0
KDC1 122318Z 12015KT 16/M05 A3002 RMK A01 T01641050  RH  023%=      5-min Rain = 0
KDC1 122319Z 13015KT 16/M05 A3002 RMK A01 T01641049  RH  023%=      5-min Rain = 0
KDC1 122320Z 13016KT 16/M05 A3002 RMK A01 T01641051  RH  023%=      5-min Rain = 0
KDC1 122321Z 13014KT 16/M05 A3002 RMK A01 T01631052  RH  022%=      5-min Rain = 0
KDC1 122322Z 13015KT 16/M05 A3002 RMK A01 T01631049  RH  023%=      5-min Rain = 0
KDC1 122323Z 13014KT 16/M05 A3002 RMK A01 T01631049  RH  023%=      5-min Rain = 0
KDC1 122324Z 13016KT 16/M05 A3002 RMK A01 T01631049  RH  023%=      5-min Rain = 0
KDC1 122325Z 13018KT 16/M05 A3002 RMK A01 T01631049  RH  023%=      5-min Rain = 0
KDC1 122326Z 13016KT 16/M05 A3002 RMK A01 T01631050  RH  023%=      5-min Rain = 0
KDC1 122327Z 13014KT 16/M05 A3002 RMK A01 T01631051  RH  023%=      5-min Rain = 0
KDC1 122328Z 12012KT 16/M05 A3002 RMK A01 T01621048  RH  023%=      5-min Rain = 0
KDC1 122329Z 13013KT 16/M05 A3002 RMK A01 T01631046  RH  024%=      5-min Rain = 0
KDC1 122330Z 12014KT 16/M05 A3002 RMK A01 T01631048  RH  023%=      5-min Rain = 0
KDC1 122331Z 13012KT 16/M05 A3002 RMK A01 T01631048  RH  023%=      5-min Rain = 0
KDC1 122332Z 12013KT 16/M05 A3002 RMK A01 T01621045  RH  024%=      5-min Rain = 0
KDC1 122333Z 12014KT 16/M05 A3002 RMK A01 T01621048  RH  023%=      5-min Rain = 0
KDC1 122334Z 13013KT 16/M05 A3002 RMK A01 T01621049  RH  023%=      5-min Rain = 0
KDC1 122335Z 12012KT 16/M05 A3002 RMK A01 T01621048  RH  023%=      5-min Rain = 0
KDC1 122336Z 12013KT 16/M05 A3002 RMK A01 T01621047  RH  023%=      5-min Rain = 0
KDC1 122337Z 12014KT 16/M05 A3002 RMK A01 T01621047  RH  023%=      5-min Rain = 0
KDC1 122338Z 12012KT 16/M05 A3002 RMK A01 T01621048  RH  023%=      5-min Rain = 0
KDC1 122339Z 12011KT 16/M05 A3002 RMK A01 T01611047  RH  024%=      5-min Rain = 0
KDC1 122340Z 12010KT 16/M05 A3002 RMK A01 T01611049  RH  023%=      5-min Rain = 0
KDC1 122341Z 12012KT 16/M05 A3002 RMK A01 T01611048  RH  023%=      5-min Rain = 0
KDC1 122342Z 12012KT 16/M05 A3002 RMK A01 T01601048  RH  023%=      5-min Rain = 0
KDC1 122343Z 13012KT 16/M05 A3002 RMK A01 T01601048  RH  024%=      5-min Rain = 0
KDC1 122344Z 13011KT 16/M05 A3002 RMK A01 T01601047  RH  024%=      5-min Rain = 0
KDC1 122345Z 12016KT 16/M05 A3002 RMK A01 T01601048  RH  024%=      5-min Rain = 0
KDC1 122346Z 12016KT 16/M05 A3002 RMK A01 T01591051  RH  023%=      5-min Rain = 0
KDC1 122347Z 13015KT 16/M05 A3002 RMK A01 T01601051  RH  023%=      5-min Rain = 0
KDC1 122348Z 12012KT 16/M05 A3002 RMK A01 T01591049  RH  024%=      5-min Rain = 0
KDC1 122349Z 12012KT 16/M05 A3002 RMK A01 T01591047  RH  024%=      5-min Rain = 0
KDC1 122350Z 13011KT 16/M05 A3002 RMK A01 T01591046  RH  024%=      5-min Rain = 0
KDC1 122351Z 13014KT 16/M05 A3002 RMK A01 T01591047  RH  024%=      5-min Rain = 0
KDC1 122352Z 13013KT 16/M05 A3002 RMK A01 T01581050  RH  024%=      5-min Rain = 0
KDC1 122353Z 13014KT 16/M05 A3002 RMK A01 T01581049  RH  024%=      5-min Rain = 0
KDC1 122354Z 13013KT 16/M05 A3002 RMK A01 T01571049  RH  024%=      5-min Rain = 0
KDC1 122355Z 13014KT 16/M05 A3002 RMK A01 T01571048  RH  024%=      5-min Rain = 0
KDC1 122356Z 13015KT 16/M05 A3002 RMK A01 T01571049  RH  024%=      5-min Rain = 0
KDC1 122357Z 13014KT 16/M05 A3002 RMK A01 T01571051  RH  024%=      5-min Rain = 0
KDC1 122358Z 14012KT 16/M05 A3001 RMK A01 T01561050  RH  024%=      5-min Rain = 0
KDC1 122359Z 13011KT 16/M05 A3001 RMK A01 T01561048  RH  024%=      5-min Rain = 0
KDC1 130000Z 13011KT 16/M05 A3001 RMK A01 T01551049  RH  024%=      5-min Rain = 0
KDC1 130001Z 14013KT 15/M05 A3001 RMK A01 T01541049  RH  024%=      5-min Rain = 0
KDC1 130002Z 14013KT 15/M05 A3001 RMK A01 T01541050  RH  024%=      5-min Rain = 0
KDC1 130003Z 14014KT 15/M05 A3002 RMK A01 T01531051  RH  024%=      5-min Rain = 0
KDC1 130004Z 13013KT 15/M05 A3001 RMK A01 T01531053  RH  024%=      5-min Rain = 0
KDC1 130005Z 13013KT 15/M05 A3001 RMK A01 T01531052  RH  024%=      5-min Rain = 0
KDC1 130006Z 14014KT 15/M05 A3001 RMK A01 T01521052  RH  024%=      5-min Rain = 0
KDC1 130007Z 14014KT 15/M05 A3001 RMK A01 T01511053  RH  024%=      5-min Rain = 0
KDC1 130008Z 14015KT 15/M06 A3001 RMK A01 T01511055  RH  024%=      5-min Rain = 0
KDC1 130009Z 14014KT 15/M06 A3002 RMK A01 T01501056  RH  024%=      5-min Rain = 0
KDC1 130010Z 14017KT 15/M06 A3001 RMK A01 T01501057  RH  024%=      5-min Rain = 0
KDC1 130011Z 14015KT 15/M06 A3002 RMK A01 T01501058  RH  023%=      5-min Rain = 0
KDC1 130012Z 14013KT 15/M06 A3002 RMK A01 T01491056  RH  024%=      5-min Rain = 0
KDC1 130013Z 14013KT 15/M06 A3002 RMK A01 T01481055  RH  024%=      5-min Rain = 0
KDC1 130014Z 14012KT 15/M06 A3002 RMK A01 T01471055  RH  024%=      5-min Rain = 0
KDC1 130015Z 14014KT 15/M06 A3002 RMK A01 T01461055  RH  024%=      5-min Rain = 0
KDC1 130016Z 14013KT 15/M06 A3002 RMK A01 T01461056  RH  024%=      5-min Rain = 0
KDC1 130017Z 14013KT 15/M06 A3002 RMK A01 T01461057  RH  024%=      5-min Rain = 0
KDC1 130018Z 14014KT 15/M06 A3002 RMK A01 T01451056  RH  025%=      5-min Rain = 0
KDC1 130019Z 14015KT 14/M06 A3002 RMK A01 T01441057  RH  024%=      5-min Rain = 0
KDC1 130020Z 14014KT 14/M06 A3002 RMK A01 T01441058  RH  024%=      5-min Rain = 0
KDC1 130021Z 14014KT 14/M06 A3002 RMK A01 T01441057  RH  024%=      5-min Rain = 0
KDC1 130022Z 14015KT 14/M06 A3002 RMK A01 T01431057  RH  024%=      5-min Rain = 0
KDC1 130023Z 14016KT 14/M06 A3002 RMK A01 T01431058  RH  024%=      5-min Rain = 0
KDC1 130024Z 14015KT 14/M06 A3002 RMK A01 T01431059  RH  024%=      5-min Rain = 0
KDC1 130025Z 14014KT 14/M06 A3002 RMK A01 T01431059  RH  024%=      5-min Rain = 0
KDC1 130026Z 14014KT 14/M06 A3002 RMK A01 T01421059  RH  024%=      5-min Rain = 0
KDC1 130027Z 14013KT 14/M06 A3002 RMK A01 T01411058  RH  025%=      5-min Rain = 0
KDC1 130028Z 14013KT 14/M06 A3002 RMK A01 T01391058  RH  025%=      5-min Rain = 0
KDC1 130029Z 14014KT 14/M06 A3002 RMK A01 T01391058  RH  025%=      5-min Rain = 0
KDC1 130030Z 14014KT 14/M06 A3002 RMK A01 T01381059  RH  025%=      5-min Rain = 0
KDC1 130031Z 14014KT 14/M06 A3002 RMK A01 T01381059  RH  025%=      5-min Rain = 0
KDC1 130032Z 14014KT 14/M06 A3002 RMK A01 T01371059  RH  025%=      5-min Rain = 0
KDC1 130033Z 14015KT 14/M06 A3002 RMK A01 T01371058  RH  025%=      5-min Rain = 0
KDC1 130034Z 14014KT 14/M06 A3002 RMK A01 T01371059  RH  025%=      5-min Rain = 0
KDC1 130035Z 14015KT 14/M06 A3002 RMK A01 T01371059  RH  025%=      5-min Rain = 0
KDC1 130036Z 14014KT 14/M06 A3002 RMK A01 T01361059  RH  025%=      5-min Rain = 0
KDC1 130037Z 14015KT 14/M06 A3002 RMK A01 T01351059  RH  026%=      5-min Rain = 0
KDC1 130038Z 14014KT 13/M06 A3002 RMK A01 T01341059  RH  026%=      5-min Rain = 0
KDC1 130039Z 14014KT 13/M06 A3002 RMK A01 T01341058  RH  026%=      5-min Rain = 0
KDC1 130040Z 14014KT 13/M06 A3002 RMK A01 T01331059  RH  026%=      5-min Rain = 0
KDC1 130041Z 14014KT 13/M06 A3002 RMK A01 T01321059  RH  026%=      5-min Rain = 0
KDC1 130042Z 14014KT 13/M06 A3002 RMK A01 T01321059  RH  026%=      5-min Rain = 0
KDC1 130043Z 14014KT 13/M06 A3002 RMK A01 T01311059  RH  026%=      5-min Rain = 0
KDC1 130044Z 14014KT 13/M06 A3002 RMK A01 T01301059  RH  026%=      5-min Rain = 0
KDC1 130045Z 14014KT 13/M06 A3002 RMK A01 T01291059  RH  026%=      5-min Rain = 0
KDC1 130046Z 14013KT 13/M06 A3002 RMK A01 T01291059  RH  026%=      5-min Rain = 0
KDC1 130047Z 14014KT 13/M06 A3003 RMK A01 T01281060  RH  026%=      5-min Rain = 0
KDC1 130048Z 15012KT 13/M06 A3003 RMK A01 T01281059  RH  027%=      5-min Rain = 0
KDC1 130049Z 15011KT 13/M06 A3003 RMK A01 T01271059  RH  027%=      5-min Rain = 0
KDC1 130050Z 15012KT 13/M06 A3003 RMK A01 T01261060  RH  027%=      5-min Rain = 0
KDC1 130051Z 15012KT 13/M06 A3003 RMK A01 T01261061  RH  027%=      5-min Rain = 0
KDC1 130052Z 15013KT 13/M06 A3003 RMK A01 T01251061  RH  027%=      5-min Rain = 0
KDC1 130053Z 15014KT 13/M06 A3003 RMK A01 T01251061  RH  027%=      5-min Rain = 0
KDC1 130054Z 15014KT 13/M06 A3003 RMK A01 T01251061  RH  027%=      5-min Rain = 0
KDC1 130055Z 15013KT 13/M06 A3003 RMK A01 T01251061  RH  027%=      5-min Rain = 0
KDC1 130056Z 15013KT 12/M06 A3003 RMK A01 T01231061  RH  027%=      5-min Rain = 0
KDC1 130057Z 15013KT 12/M06 A3003 RMK A01 T01221061  RH  027%=      5-min Rain = 0
KDC1 130058Z 15013KT 12/M06 A3003 RMK A01 T01211061  RH  027%=      5-min Rain = 0
KDC1 130059Z 15014KT 12/M06 A3003 RMK A01 T01211062  RH  027%=      5-min Rain = 0
KDC1 130100Z 15013KT 12/M06 A3003 RMK A01 T01211062  RH  027%=      5-min Rain = 0
KDC1 130101Z 15013KT 12/M06 A3003 RMK A01 T01211062  RH  027%=      5-min Rain = 0
KDC1 130102Z 15014KT 12/M06 A3003 RMK A01 T01201063  RH  027%=      5-min Rain = 0
KDC1 130103Z 15014KT 12/M06 A3003 RMK A01 T01201063  RH  027%=      5-min Rain = 0
KDC1 130104Z 15014KT 12/M06 A3003 RMK A01 T01201062  RH  027%=      5-min Rain = 0
KDC1 130105Z 15014KT 12/M06 A3003 RMK A01 T01191062  RH  028%=      5-min Rain = 0
KDC1 130106Z 15014KT 12/M06 A3003 RMK A01 T01181062  RH  028%=      5-min Rain = 0
KDC1 130107Z 15014KT 12/M06 A3003 RMK A01 T01181063  RH  028%=      5-min Rain = 0
KDC1 130108Z 15013KT 12/M06 A3003 RMK A01 T01191063  RH  027%=      5-min Rain = 0
KDC1 130109Z 15012KT 12/M06 A3003 RMK A01 T01191062  RH  028%=      5-min Rain = 0
KDC1 130110Z 15014KT 12/M06 A3003 RMK A01 T01181062  RH  028%=      5-min Rain = 0
KDC1 130111Z 15013KT 12/M06 A3003 RMK A01 T01181062  RH  028%=      5-min Rain = 0
KDC1 130112Z 15013KT 12/M06 A3003 RMK A01 T01181062  RH  028%=      5-min Rain = 0
KDC1 130113Z 15012KT 12/M06 A3003 RMK A01 T01171062  RH  028%=      5-min Rain = 0
KDC1 130114Z 15013KT 12/M06 A3003 RMK A01 T01161062  RH  028%=      5-min Rain = 0
KDC1 130115Z 15013KT 12/M06 A3003 RMK A01 T01151063  RH  028%=      5-min Rain = 0
KDC1 130116Z 15013KT 12/M06 A3003 RMK A01 T01151062  RH  028%=      5-min Rain = 0
KDC1 130117Z 15013KT 12/M06 A3003 RMK A01 T01151062  RH  028%=      5-min Rain = 0
KDC1 130118Z 15014KT 12/M06 A3003 RMK A01 T01151062  RH  028%=      5-min Rain = 0
KDC1 130119Z 15015KT 12/M06 A3003 RMK A01 T01151063  RH  028%=      5-min Rain = 0
KDC1 130120Z 15014KT 11/M06 A3003 RMK A01 T01141062  RH  029%=      5-min Rain = 0
KDC1 130121Z 15015KT 11/M06 A3003 RMK A01 T01141062  RH  029%=      5-min Rain = 0
KDC1 130122Z 15015KT 11/M06 A3003 RMK A01 T01141061  RH  029%=      5-min Rain = 0
KDC1 130123Z 15015KT 11/M06 A3003 RMK A01 T01141062  RH  029%=      5-min Rain = 0
KDC1 130124Z 15015KT 11/M06 A3003 RMK A01 T01131062  RH  029%=      5-min Rain = 0
KDC1 130125Z 15015KT 11/M06 A3003 RMK A01 T01121063  RH  029%=      5-min Rain = 0
KDC1 130126Z 15015KT 11/M06 A3004 RMK A01 T01121062  RH  029%=      5-min Rain = 0
KDC1 130127Z 15014KT 11/M06 A3004 RMK A01 T01131063  RH  029%=      5-min Rain = 0
KDC1 130128Z 15015KT 11/M06 A3004 RMK A01 T01131063  RH  029%=      5-min Rain = 0
KDC1 130129Z 15014KT 11/M06 A3004 RMK A01 T01131063  RH  029%=      5-min Rain = 0
KDC1 130130Z 15014KT 11/M06 A3004 RMK A01 T01131063  RH  029%=      5-min Rain = 0
KDC1 130131Z 15013KT 11/M06 A3004 RMK A01 T01121063  RH  029%=      5-min Rain = 0
KDC1 130132Z 15013KT 11/M06 A3004 RMK A01 T01111063  RH  029%=      5-min Rain = 0
KDC1 130133Z 15015KT 11/M06 A3004 RMK A01 T01111063  RH  029%=      5-min Rain = 0
KDC1 130134Z 15013KT 11/M06 A3004 RMK A01 T01121063  RH  029%=      5-min Rain = 0
KDC1 130135Z 15014KT 11/M06 A3004 RMK A01 T01121062  RH  029%=      5-min Rain = 0
KDC1 130136Z 15014KT 11/M06 A3004 RMK A01 T01121062  RH  029%=      5-min Rain = 0
KDC1 130137Z 15013KT 11/M06 A3004 RMK A01 T01121062  RH  029%=      5-min Rain = 0
KDC1 130138Z 15013KT 11/M06 A3004 RMK A01 T01111062  RH  029%=      5-min Rain = 0
KDC1 130139Z 15013KT 11/M06 A3004 RMK A01 T01101062  RH  029%=      5-min Rain = 0
KDC1 130140Z 15013KT 11/M06 A3004 RMK A01 T01091061  RH  030%=      5-min Rain = 0
KDC1 130141Z 15013KT 11/M06 A3004 RMK A01 T01091062  RH  030%=      5-min Rain = 0
KDC1 130142Z 15014KT 11/M06 A3005 RMK A01 T01091061  RH  030%=      5-min Rain = 0
KDC1 130143Z 15013KT 11/M06 A3005 RMK A01 T01091061  RH  030%=      5-min Rain = 0
KDC1 130144Z 15011KT 11/M06 A3005 RMK A01 T01101061  RH  030%=      5-min Rain = 0
KDC1 130145Z 15011KT 11/M06 A3005 RMK A01 T01091061  RH  030%=      5-min Rain = 0
KDC1 130146Z 15011KT 11/M06 A3005 RMK A01 T01091061  RH  030%=      5-min Rain = 0
KDC1 130147Z 16011KT 11/M06 A3005 RMK A01 T01081060  RH  030%=      5-min Rain = 0
KDC1 130148Z 15011KT 11/M06 A3005 RMK A01 T01071060  RH  030%=      5-min Rain = 0
KDC1 130149Z 15012KT 11/M06 A3005 RMK A01 T01071060  RH  030%=      5-min Rain = 0
KDC1 130150Z 15011KT 11/M06 A3005 RMK A01 T01071061  RH  030%=      5-min Rain = 0
KDC1 130151Z 15010KT 11/M06 A3005 RMK A01 T01061061  RH  030%=      5-min Rain = 0
KDC1 130152Z 16011KT 11/M06 A3005 RMK A01 T01061061  RH  030%=      5-min Rain = 0
KDC1 130153Z 15011KT 11/M06 A3005 RMK A01 T01051061  RH  031%=      5-min Rain = 0
KDC1 130154Z 16011KT 11/M06 A3005 RMK A01 T01051061  RH  030%=      5-min Rain = 0
KDC1 130155Z 15011KT 11/M06 A3005 RMK A01 T01051062  RH  030%=      5-min Rain = 0
KDC1 130156Z 15010KT 11/M06 A3005 RMK A01 T01051061  RH  030%=      5-min Rain = 0
KDC1 130157Z 15011KT 11/M06 A3005 RMK A01 T01051062  RH  030%=      5-min Rain = 0
KDC1 130158Z 16011KT 11/M06 A3005 RMK A01 T01051062  RH  030%=      5-min Rain = 0
KDC1 130159Z 16010KT 11/M06 A3006 RMK A01 T01051062  RH  030%=      5-min Rain = 0
KDC1 130200Z 16010KT 11/M06 A3006 RMK A01 T01051061  RH  030%=      5-min Rain = 0
KDC1 130201Z 16010KT 10/M06 A3006 RMK A01 T01041061  RH  031%=      5-min Rain = 0
KDC1 130202Z 15010KT 10/M06 A3006 RMK A01 T01041062  RH  031%=      5-min Rain = 0
KDC1 130203Z 15010KT 10/M06 A3006 RMK A01 T01041062  RH  031%=      5-min Rain = 0
KDC1 130204Z 16011KT 10/M06 A3006 RMK A01 T01031062  RH  031%=      5-min Rain = 0
KDC1 130205Z 16009KT 10/M06 A3006 RMK A01 T01041062  RH  031%=      5-min Rain = 0
KDC1 130206Z 16009KT 10/M06 A3006 RMK A01 T01031063  RH  031%=      5-min Rain = 0
KDC1 130207Z 16009KT 10/M06 A3006 RMK A01 T01021063  RH  031%=      5-min Rain = 0
KDC1 130208Z 16009KT 10/M06 A3006 RMK A01 T01011063  RH  031%=      5-min Rain = 0
KDC1 130209Z 16009KT 10/M06 A3006 RMK A01 T01011062  RH  031%=      5-min Rain = 0
KDC1 130210Z 17009KT 10/M06 A3006 RMK A01 T01001063  RH  031%=      5-min Rain = 0
KDC1 130211Z 16009KT 10/M06 A3006 RMK A01 T01011063  RH  031%=      5-min Rain = 0
KDC1 130212Z 16009KT 10/M06 A3006 RMK A01 T01011063  RH  031%=      5-min Rain = 0
KDC1 130213Z 16009KT 10/M06 A3006 RMK A01 T01001063  RH  031%=      5-min Rain = 0
KDC1 130214Z 16009KT 10/M06 A3006 RMK A01 T01001064  RH  031%=      5-min Rain = 0
KDC1 130215Z 16010KT 10/M06 A3006 RMK A01 T01001064  RH  031%=      5-min Rain = 0
KDC1 130216Z 16009KT 10/M07 A3006 RMK A01 T01001065  RH  031%=      5-min Rain = 0
KDC1 130217Z 16010KT 10/M06 A3006 RMK A01 T01001064  RH  031%=      5-min Rain = 0
KDC1 130218Z 16009KT 10/M06 A3007 RMK A01 T00991064  RH  031%=      5-min Rain = 0
KDC1 130219Z 16011KT 10/M06 A3007 RMK A01 T01001063  RH  031%=      5-min Rain = 0
KDC1 130220Z 16010KT 10/M06 A3007 RMK A01 T01001063  RH  031%=      5-min Rain = 0
KDC1 130221Z 16012KT 10/M06 A3007 RMK A01 T01001062  RH  031%=      5-min Rain = 0
KDC1 130222Z 16011KT 10/M06 A3007 RMK A01 T01001063  RH  031%=      5-min Rain = 0
KDC1 130223Z 17011KT 10/M06 A3007 RMK A01 T01001063  RH  031%=      5-min Rain = 0
KDC1 130224Z 16010KT 10/M06 A3007 RMK A01 T01011063  RH  031%=      5-min Rain = 0
KDC1 130225Z 16011KT 10/M06 A3007 RMK A01 T01011064  RH  031%=      5-min Rain = 0
KDC1 130226Z 16012KT 10/M06 A3007 RMK A01 T01011063  RH  031%=      5-min Rain = 0
KDC1 130227Z 16012KT 10/M06 A3007 RMK A01 T01011063  RH  031%=      5-min Rain = 0
KDC1 130228Z 16011KT 10/M06 A3007 RMK A01 T01011063  RH  031%=      5-min Rain = 0
KDC1 130229Z 16011KT 10/M06 A3007 RMK A01 T01001064  RH  031%=      5-min Rain = 0
KDC1 130230Z 16010KT 10/M06 A3007 RMK A01 T01001063  RH  031%=      5-min Rain = 0
KDC1 130231Z 16010KT 10/M06 A3007 RMK A01 T01001063  RH  031%=      5-min Rain = 0
KDC1 130232Z 17011KT 10/M06 A3007 RMK A01 T00991064  RH  031%=      5-min Rain = 0
KDC1 130233Z 16011KT 10/M06 A3007 RMK A01 T00991064  RH  031%=      5-min Rain = 0
KDC1 130234Z 16011KT 10/M06 A3007 RMK A01 T00991064  RH  031%=      5-min Rain = 0
KDC1 130235Z 16011KT 10/M06 A3007 RMK A01 T00991064  RH  031%=      5-min Rain = 0
KDC1 130236Z 16010KT 10/M06 A3007 RMK A01 T00981064  RH  031%=      5-min Rain = 0
KDC1 130237Z 16010KT 10/M06 A3007 RMK A01 T00981064  RH  031%=      5-min Rain = 0
KDC1 130238Z 16010KT 10/M06 A3007 RMK A01 T00981064  RH  031%=      5-min Rain = 0
KDC1 130239Z 16010KT 10/M06 A3007 RMK A01 T00981064  RH  031%=      5-min Rain = 0
KDC1 130240Z 16010KT 10/M06 A3007 RMK A01 T00971064  RH  031%=      5-min Rain = 0
KDC1 130241Z 16011KT 10/M06 A3007 RMK A01 T00981064  RH  031%=      5-min Rain = 0
KDC1 130242Z 16009KT 10/M06 A3007 RMK A01 T00991064  RH  031%=      5-min Rain = 0
KDC1 130243Z 17009KT 10/M06 A3007 RMK A01 T00991064  RH  031%=      5-min Rain = 0
KDC1 130244Z 17008KT 10/M07 A3008 RMK A01 T00991065  RH  031%=      5-min Rain = 0
KDC1 130245Z 17008KT 10/M07 A3008 RMK A01 T00991065  RH  031%=      5-min Rain = 0
KDC1 130246Z 17007KT 10/M07 A3008 RMK A01 T00981066  RH  031%=      5-min Rain = 0
KDC1 130247Z 17007KT 10/M07 A3008 RMK A01 T00981066  RH  031%=      5-min Rain = 0
KDC1 130248Z 17008KT 10/M07 A3008 RMK A01 T00981066  RH  031%=      5-min Rain = 0
KDC1 130249Z 17007KT 10/M07 A3008 RMK A01 T00981066  RH  031%=      5-min Rain = 0
KDC1 130250Z 17007KT 10/M07 A3008 RMK A01 T00981066  RH  031%=      5-min Rain = 0
KDC1 130251Z 17008KT 10/M07 A3008 RMK A01 T00981066  RH  031%=      5-min Rain = 0
KDC1 130252Z 17008KT 10/M07 A3008 RMK A01 T00981066  RH  031%=      5-min Rain = 0
KDC1 130253Z 17009KT 10/M07 A3008 RMK A01 T00981065  RH  031%=      5-min Rain = 0
KDC1 130254Z 17008KT 10/M07 A3008 RMK A01 T00981065  RH  031%=      5-min Rain = 0
KDC1 130255Z 17008KT 10/M07 A3008 RMK A01 T00971065  RH  031%=      5-min Rain = 0
KDC1 130256Z 17009KT 10/M07 A3008 RMK A01 T00971065  RH  031%=      5-min Rain = 0
KDC1 130257Z 17009KT 10/M07 A3008 RMK A01 T00961065  RH  031%=      5-min Rain = 0
KDC1 130258Z 17008KT 10/M07 A3008 RMK A01 T00961065  RH  031%=      5-min Rain = 0
KDC1 130259Z 17007KT 10/M07 A3009 RMK A01 T00961065  RH  032%=      5-min Rain = 0
KDC1 130300Z 17008KT 10/M07 A3009 RMK A01 T00951066  RH  032%=      5-min Rain = 0
KDC1 130301Z 17007KT 10/M07 A3009 RMK A01 T00951065  RH  032%=      5-min Rain = 0
KDC1 130302Z 17006KT 10/M07 A3009 RMK A01 T00961065  RH  031%=      5-min Rain = 0
KDC1 130303Z 17007KT 10/M07 A3009 RMK A01 T00951066  RH  032%=      5-min Rain = 0
KDC1 130304Z 17007KT 10/M07 A3009 RMK A01 T00951065  RH  032%=      5-min Rain = 0
KDC1 130305Z 17005KT 09/M07 A3009 RMK A01 T00941066  RH  032%=      5-min Rain = 0
KDC1 130306Z 17006KT 09/M07 A3009 RMK A01 T00941066  RH  032%=      5-min Rain = 0
KDC1 130307Z 17006KT 09/M07 A3009 RMK A01 T00931066  RH  032%=      5-min Rain = 0
KDC1 130308Z 18005KT 09/M07 A3009 RMK A01 T00931066  RH  032%=      5-min Rain = 0
KDC1 130309Z 17006KT 09/M07 A3009 RMK A01 T00931066  RH  032%=      5-min Rain = 0
KDC1 130310Z 18006KT 09/M07 A3009 RMK A01 T00921066  RH  032%=      5-min Rain = 0
KDC1 130311Z 17006KT 09/M07 A3009 RMK A01 T00931065  RH  032%=      5-min Rain = 0
KDC1 130312Z 17006KT 09/M07 A3009 RMK A01 T00931065  RH  032%=      5-min Rain = 0
KDC1 130313Z 18005KT 09/M07 A3009 RMK A01 T00931065  RH  032%=      5-min Rain = 0
KDC1 130314Z 18005KT 09/M07 A3009 RMK A01 T00931066  RH  032%=      5-min Rain = 0
KDC1 130315Z 19006KT 09/M07 A3009 RMK A01 T00921065  RH  032%=      5-min Rain = 0
KDC1 130316Z 19006KT 09/M07 A3009 RMK A01 T00931065  RH  032%=      5-min Rain = 0
KDC1 130317Z 19006KT 09/M06 A3009 RMK A01 T00941064  RH  032%=      5-min Rain = 0
KDC1 130318Z 19005KT 10/M06 A3009 RMK A01 T00951062  RH  033%=      5-min Rain = 0
KDC1 130319Z 19005KT 09/M06 A3009 RMK A01 T00941063  RH  032%=      5-min Rain = 0
KDC1 130320Z 18004KT 09/M06 A3009 RMK A01 T00941063  RH  032%=      5-min Rain = 0
KDC1 130321Z 19005KT 09/M06 A3009 RMK A01 T00941063  RH  032%=      5-min Rain = 0
KDC1 130322Z 20004KT 09/M06 A3009 RMK A01 T00941063  RH  032%=      5-min Rain = 0
KDC1 130323Z 20003KT 09/M06 A3009 RMK A01 T00931063  RH  033%=      5-min Rain = 0
KDC1 130324Z 21004KT 09/M06 A3009 RMK A01 T00901063  RH  033%=      5-min Rain = 0
KDC1 130325Z 20003KT 09/M06 A3009 RMK A01 T00891062  RH  034%=      5-min Rain = 0
KDC1 130326Z 20004KT 09/M06 A3009 RMK A01 T00871061  RH  034%=      5-min Rain = 0
KDC1 130327Z 20004KT 09/M06 A3009 RMK A01 T00861061  RH  035%=      5-min Rain = 0
KDC1 130328Z 20004KT 09/M06 A301 RMK A01 T00851062  RH  035%=      5-min Rain = 0
KDC1 130329Z 20005KT 08/M06 A3009 RMK A01 T00841062  RH  035%=      5-min Rain = 0
KDC1 130330Z 20005KT 08/M06 A3009 RMK A01 T00841062  RH  035%=      5-min Rain = 0
KDC1 130331Z 19006KT 08/M06 A301 RMK A01 T00841062  RH  035%=      5-min Rain = 0
KDC1 130332Z 19005KT 08/M06 A301 RMK A01 T00841061  RH  035%=      5-min Rain = 0
KDC1 130333Z 19006KT 09/M06 A301 RMK A01 T00851062  RH  035%=      5-min Rain = 0
KDC1 130334Z 19006KT 09/M06 A301 RMK A01 T00861062  RH  035%=      5-min Rain = 0
KDC1 130335Z 19006KT 09/M06 A301 RMK A01 T00871062  RH  034%=      5-min Rain = 0
KDC1 130336Z 19006KT 09/M06 A301 RMK A01 T00871062  RH  034%=      5-min Rain = 0
KDC1 130337Z 19007KT 09/M06 A301 RMK A01 T00881062  RH  034%=      5-min Rain = 0
KDC1 130338Z 20006KT 09/M06 A301 RMK A01 T00891062  RH  034%=      5-min Rain = 0
KDC1 130339Z 20006KT 09/M06 A301 RMK A01 T00881063  RH  034%=      5-min Rain = 0
KDC1 130340Z 20007KT 09/M06 A301 RMK A01 T00871062  RH  034%=      5-min Rain = 0
KDC1 130341Z 20006KT 09/M06 A301 RMK A01 T00861062  RH  034%=      5-min Rain = 0
KDC1 130342Z 20006KT 09/M06 A301 RMK A01 T00861062  RH  035%=      5-min Rain = 0
KDC1 130343Z 20007KT 09/M06 A301 RMK A01 T00851061  RH  035%=      5-min Rain = 0
KDC1 130344Z 20007KT 09/M06 A301 RMK A01 T00851061  RH  035%=      5-min Rain = 0
KDC1 130345Z 19007KT 09/M06 A301 RMK A01 T00851061  RH  035%=      5-min Rain = 0
KDC1 130346Z 20007KT 09/M06 A301 RMK A01 T00851062  RH  035%=      5-min Rain = 0
KDC1 130347Z 19006KT 09/M06 A301 RMK A01 T00851062  RH  035%=      5-min Rain = 0
KDC1 130348Z 18007KT 09/M06 A301 RMK A01 T00851062  RH  035%=      5-min Rain = 0
KDC1 130349Z 18007KT 09/M06 A301 RMK A01 T00851062  RH  035%=      5-min Rain = 0
KDC1 130350Z 18008KT 09/M06 A301 RMK A01 T00851063  RH  034%=      5-min Rain = 0
KDC1 130351Z 18007KT 09/M06 A301 RMK A01 T00861062  RH  035%=      5-min Rain = 0
KDC1 130352Z 18008KT 09/M06 A301 RMK A01 T00861062  RH  034%=      5-min Rain = 0
KDC1 130353Z 17009KT 09/M06 A301 RMK A01 T00861063  RH  034%=      5-min Rain = 0
KDC1 130354Z 18009KT 09/M06 A301 RMK A01 T00871063  RH  034%=      5-min Rain = 0
KDC1 130355Z 18008KT 09/M06 A301 RMK A01 T00881063  RH  034%=      5-min Rain = 0
KDC1 130356Z 18008KT 09/M06 A301 RMK A01 T00891064  RH  033%=      5-min Rain = 0
KDC1 130357Z 18008KT 09/M06 A301 RMK A01 T00881064  RH  033%=      5-min Rain = 0
KDC1 130358Z 18008KT 09/M06 A301 RMK A01 T00891064  RH  033%=      5-min Rain = 0
KDC1 130359Z 18007KT 09/M07 A301 RMK A01 T00891065  RH  033%=      5-min Rain = 0
KDC1 130400Z 18008KT 09/M07 A301 RMK A01 T00891065  RH  033%=      5-min Rain = 0
KDC1 130401Z 18007KT 09/M07 A301 RMK A01 T00901065  RH  033%=      5-min Rain = 0
KDC1 130402Z 18009KT 09/M07 A301 RMK A01 T00901065  RH  033%=      5-min Rain = 0
KDC1 130403Z 18008KT 09/M07 A301 RMK A01 T00901065  RH  033%=      5-min Rain = 0
KDC1 130404Z 18008KT 09/M07 A301 RMK A01 T00901065  RH  033%=      5-min Rain = 0
KDC1 130405Z 19008KT 09/M07 A301 RMK A01 T00901065  RH  033%=      5-min Rain = 0
KDC1 130406Z 19008KT 09/M07 A301 RMK A01 T00901065  RH  033%=      5-min Rain = 0
KDC1 130407Z 20008KT 09/M07 A301 RMK A01 T00901065  RH  033%=      5-min Rain = 0
KDC1 130408Z 19007KT 09/M07 A3011 RMK A01 T00891065  RH  033%=      5-min Rain = 0
KDC1 130409Z 19008KT 09/M07 A3011 RMK A01 T00881065  RH  033%=      5-min Rain = 0
KDC1 130410Z 20008KT 09/M07 A3011 RMK A01 T00861065  RH  034%=      5-min Rain = 0
KDC1 130411Z 20008KT 09/M06 A3011 RMK A01 T00851064  RH  034%=      5-min Rain = 0
KDC1 130412Z 19007KT 08/M06 A3011 RMK A01 T00841064  RH  034%=      5-min Rain = 0
KDC1 130413Z 19007KT 08/M06 A3011 RMK A01 T00831064  RH  035%=      5-min Rain = 0
KDC1 130414Z 19007KT 08/M06 A3011 RMK A01 T00821064  RH  035%=      5-min Rain = 0
KDC1 130415Z 20006KT 08/M06 A3011 RMK A01 T00821063  RH  035%=      5-min Rain = 0
KDC1 130416Z 20006KT 08/M06 A3011 RMK A01 T00811063  RH  035%=      5-min Rain = 0
KDC1 130417Z 20006KT 08/M06 A3011 RMK A01 T00801063  RH  036%=      5-min Rain = 0
KDC1 130418Z 21005KT 08/M06 A3011 RMK A01 T00791063  RH  036%=      5-min Rain = 0
KDC1 130419Z 21005KT 08/M06 A3011 RMK A01 T00781063  RH  036%=      5-min Rain = 0
KDC1 130420Z 21005KT 08/M06 A3011 RMK A01 T00771063  RH  036%=      5-min Rain = 0
KDC1 130421Z 21005KT 08/M06 A3011 RMK A01 T00751062  RH  037%=      5-min Rain = 0
KDC1 130422Z 21006KT 07/M06 A3011 RMK A01 T00741062  RH  037%=      5-min Rain = 0
KDC1 130423Z 21006KT 07/M06 A3011 RMK A01 T00741062  RH  038%=      5-min Rain = 0
KDC1 130424Z 21006KT 07/M06 A3011 RMK A01 T00731061  RH  038%=      5-min Rain = 0
KDC1 130425Z 20007KT 07/M06 A3011 RMK A01 T00731061  RH  038%=      5-min Rain = 0
KDC1 130426Z 20007KT 07/M06 A3011 RMK A01 T00721061  RH  038%=      5-min Rain = 0
KDC1 130427Z 20006KT 07/M06 A3011 RMK A01 T00731061  RH  038%=      5-min Rain = 0
KDC1 130428Z 19008KT 07/M06 A3011 RMK A01 T00741061  RH  038%=      5-min Rain = 0
KDC1 130429Z 19008KT 08/M06 A3011 RMK A01 T00751061  RH  037%=      5-min Rain = 0
KDC1 130430Z 19008KT 08/M06 A3011 RMK A01 T00761062  RH  037%=      5-min Rain = 0
KDC1 130431Z 20008KT 08/M06 A3011 RMK A01 T00761062  RH  037%=      5-min Rain = 0
KDC1 130432Z 20009KT 08/M06 A3011 RMK A01 T00761062  RH  037%=      5-min Rain = 0
KDC1 130433Z 20008KT 08/M06 A3011 RMK A01 T00771061  RH  037%=      5-min Rain = 0
KDC1 130434Z 20008KT 08/M06 A3011 RMK A01 T00771062  RH  037%=      5-min Rain = 0
KDC1 130435Z 20008KT 08/M06 A3011 RMK A01 T00771062  RH  037%=      5-min Rain = 0
KDC1 130436Z 20009KT 08/M06 A3011 RMK A01 T00761063  RH  037%=      5-min Rain = 0
KDC1 130437Z 20009KT 08/M06 A3011 RMK A01 T00761063  RH  037%=      5-min Rain = 0
KDC1 130438Z 20009KT 08/M06 A3012 RMK A01 T00771062  RH  037%=      5-min Rain = 0
KDC1 130439Z 20008KT 08/M06 A3012 RMK A01 T00761063  RH  037%=      5-min Rain = 0
KDC1 130440Z 20009KT 08/M06 A3012 RMK A01 T00761063  RH  037%=      5-min Rain = 0
KDC1 130441Z 20010KT 08/M06 A3012 RMK A01 T00761062  RH  037%=      5-min Rain = 0
KDC1 130442Z 20009KT 08/M06 A3012 RMK A01 T00761062  RH  037%=      5-min Rain = 0
KDC1 130443Z 20010KT 08/M06 A3012 RMK A01 T00761062  RH  037%=      5-min Rain = 0
KDC1 130444Z 19010KT 08/M06 A3012 RMK A01 T00761063  RH  037%=      5-min Rain = 0
KDC1 130445Z 19010KT 08/M06 A3012 RMK A01 T00761063  RH  037%=      5-min Rain = 0
KDC1 130446Z 19009KT 08/M06 A3012 RMK A01 T00761063  RH  037%=      5-min Rain = 0
KDC1 130447Z 19009KT 08/M06 A3012 RMK A01 T00751063  RH  037%=      5-min Rain = 0
KDC1 130448Z 19009KT 08/M06 A3012 RMK A01 T00751063  RH  037%=      5-min Rain = 0
KDC1 130449Z 19010KT 08/M06 A3012 RMK A01 T00751063  RH  037%=      5-min Rain = 0
KDC1 130450Z 19010KT 08/M06 A3012 RMK A01 T00751063  RH  037%=      5-min Rain = 0
KDC1 130451Z 19010KT 08/M06 A3012 RMK A01 T00751063  RH  037%=      5-min Rain = 0
KDC1 130452Z 19009KT 08/M06 A3012 RMK A01 T00761063  RH  037%=      5-min Rain = 0
KDC1 130453Z 19009KT 08/M06 A3012 RMK A01 T00751063  RH  037%=      5-min Rain = 0
KDC1 130454Z 19009KT 08/M06 A3011 RMK A01 T00751063  RH  037%=      5-min Rain = 0
KDC1 130455Z 19009KT 08/M06 A3011 RMK A01 T00751062  RH  037%=      5-min Rain = 0
KDC1 130456Z 19010KT 08/M06 A3012 RMK A01 T00751062  RH  037%=      5-min Rain = 0
KDC1 130457Z 19009KT 08/M06 A3012 RMK A01 T00751062  RH  037%=      5-min Rain = 0
KDC1 130458Z 19010KT 08/M06 A3011 RMK A01 T00751062  RH  037%=      5-min Rain = 0
KDC1 130459Z 19010KT 07/M06 A3011 RMK A01 T00741062  RH  037%=      5-min Rain = 0
KDC1 130500Z 20010KT 07/M06 A3011 RMK A01 T00741062  RH  037%=      5-min Rain = 0
KDC1 130501Z 20010KT 08/M06 A3011 RMK A01 T00751062  RH  037%=      5-min Rain = 0
KDC1 130502Z 20011KT 07/M06 A3011 RMK A01 T00741062  RH  037%=      5-min Rain = 0
KDC1 130503Z 19011KT 07/M06 A3011 RMK A01 T00741062  RH  037%=      5-min Rain = 0
KDC1 130504Z 19011KT 07/M06 A3011 RMK A01 T00741062  RH  037%=      5-min Rain = 0
KDC1 130505Z 19010KT 07/M06 A3011 RMK A01 T00731062  RH  037%=      5-min Rain = 0
KDC1 130506Z 19010KT 07/M06 A3011 RMK A01 T00731062  RH  038%=      5-min Rain = 0
KDC1 130507Z 19011KT 07/M06 A3011 RMK A01 T00731062  RH  038%=      5-min Rain = 0
KDC1 130508Z 19010KT 07/M06 A3011 RMK A01 T00731061  RH  038%=      5-min Rain = 0
KDC1 130509Z 19011KT 07/M06 A3011 RMK A01 T00721062  RH  038%=      5-min Rain = 0
KDC1 130510Z 19010KT 07/M06 A3012 RMK A01 T00721061  RH  038%=      5-min Rain = 0
KDC1 130511Z 19010KT 07/M06 A3012 RMK A01 T00721061  RH  038%=      5-min Rain = 0
KDC1 130512Z 19011KT 07/M06 A3012 RMK A01 T00721061  RH  038%=      5-min Rain = 0
KDC1 130513Z 19010KT 07/M06 A3012 RMK A01 T00721061  RH  038%=      5-min Rain = 0
KDC1 130514Z 19010KT 07/M06 A3012 RMK A01 T00721061  RH  038%=      5-min Rain = 0
KDC1 130515Z 18009KT 07/M06 A3012 RMK A01 T00711061  RH  038%=      5-min Rain = 0
KDC1 130516Z 18010KT 07/M06 A3012 RMK A01 T00711061  RH  039%=      5-min Rain = 0
KDC1 130517Z 18010KT 07/M06 A3012 RMK A01 T00711061  RH  039%=      5-min Rain = 0
KDC1 130518Z 18009KT 07/M06 A3012 RMK A01 T00701061  RH  039%=      5-min Rain = 0
KDC1 130519Z 18009KT 07/M06 A3012 RMK A01 T00711060  RH  039%=      5-min Rain = 0
KDC1 130520Z 18009KT 07/M06 A3012 RMK A01 T00701060  RH  039%=      5-min Rain = 0
KDC1 130521Z 18010KT 07/M06 A3012 RMK A01 T00701060  RH  039%=      5-min Rain = 0
KDC1 130522Z 19009KT 07/M06 A3012 RMK A01 T00701060  RH  039%=      5-min Rain = 0
KDC1 130523Z 19009KT 07/M06 A3012 RMK A01 T00701060  RH  039%=      5-min Rain = 0
KDC1 130524Z 18009KT 07/M06 A3012 RMK A01 T00711060  RH  039%=      5-min Rain = 0
KDC1 130525Z 18008KT 07/M06 A3012 RMK A01 T00701061  RH  039%=      5-min Rain = 0
KDC1 130526Z 18009G14KT 07/M06 A3012 RMK A01 T00701061  RH  039%=      5-min Rain = 0
KDC1 130527Z 18009KT 07/M06 A3012 RMK A01 T00701061  RH  039%=      5-min Rain = 0
KDC1 130528Z 18009KT 07/M06 A3012 RMK A01 T00701060  RH  039%=      5-min Rain = 0
KDC1 130529Z 18010KT 07/M06 A3012 RMK A01 T00701060  RH  039%=      5-min Rain = 0
KDC1 130530Z 18009KT 07/M06 A3012 RMK A01 T00701060  RH  039%=      5-min Rain = 0
KDC1 130531Z 18009KT 07/M06 A3012 RMK A01 T00701060  RH  039%=      5-min Rain = 0
KDC1 130532Z 18007KT 07/M06 A3012 RMK A01 T00701060  RH  039%=      5-min Rain = 0
KDC1 130533Z 18009KT 07/M06 A3012 RMK A01 T00701060  RH  039%=      5-min Rain = 0
KDC1 130534Z 19009KT 07/M06 A3013 RMK A01 T00701060  RH  039%=      5-min Rain = 0
KDC1 130535Z 18008KT 07/M06 A3013 RMK A01 T00691060  RH  039%=      5-min Rain = 0
KDC1 130536Z 18008KT 07/M06 A3013 RMK A01 T00691060  RH  039%=      5-min Rain = 0
KDC1 130537Z 18009KT 07/M06 A3013 RMK A01 T00691060  RH  039%=      5-min Rain = 0
KDC1 130538Z 18006KT 07/M06 A3013 RMK A01 T00691060  RH  039%=      5-min Rain = 0
KDC1 130539Z 18007KT 07/M06 A3013 RMK A01 T00681060  RH  039%=      5-min Rain = 0
KDC1 130540Z 18008KT 07/M06 A3013 RMK A01 T00681060  RH  040%=      5-min Rain = 0
KDC1 130541Z 18008KT 07/M06 A3013 RMK A01 T00681059  RH  040%=      5-min Rain = 0
KDC1 130542Z 17008KT 07/M06 A3013 RMK A01 T00671059  RH  040%=      5-min Rain = 0
KDC1 130543Z 18008KT 07/M06 A3013 RMK A01 T00681059  RH  040%=      5-min Rain = 0
KDC1 130544Z 18007KT 07/M06 A3013 RMK A01 T00681058  RH  040%=      5-min Rain = 0
KDC1 130545Z 19007KT 07/M06 A3013 RMK A01 T00671058  RH  040%=      5-min Rain = 0
KDC1 130546Z 18007KT 07/M06 A3013 RMK A01 T00671058  RH  040%=      5-min Rain = 0
KDC1 130547Z 18008KT 07/M06 A3013 RMK A01 T00671058  RH  040%=      5-min Rain = 0
KDC1 130548Z 19008KT 07/M06 A3013 RMK A01 T00671058  RH  040%=      5-min Rain = 0
KDC1 130549Z 18008KT 07/M06 A3013 RMK A01 T00671058  RH  040%=      5-min Rain = 0
KDC1 130550Z 18009KT 07/M06 A3013 RMK A01 T00671058  RH  040%=      5-min Rain = 0
KDC1 130551Z 18008KT 07/M06 A3013 RMK A01 T00671058  RH  040%=      5-min Rain = 0
KDC1 130552Z 19007KT 07/M06 A3013 RMK A01 T00671058  RH  040%=      5-min Rain = 0
KDC1 130553Z 18008KT 07/M06 A3013 RMK A01 T00671058  RH  040%=      5-min Rain = 0
KDC1 130554Z 18007KT 07/M06 A3013 RMK A01 T00671058  RH  040%=      5-min Rain = 0
KDC1 130555Z 18008KT 07/M06 A3013 RMK A01 T00671058  RH  041%=      5-min Rain = 0
KDC1 130556Z 19008KT 07/M06 A3014 RMK A01 T00671058  RH  041%=      5-min Rain = 0
KDC1 130557Z 19008KT 07/M06 A3014 RMK A01 T00671058  RH  041%=      5-min Rain = 0
KDC1 130558Z 18007G12KT 07/M06 A3014 RMK A01 T00671058  RH  041%=      5-min Rain = 0
KDC1 130559Z 18008KT 07/M06 A3014 RMK A01 T00671058  RH  040%=      5-min Rain = 0

Page generated in 0.1371 seconds.